<?xml version="1.0" encoding="UTF-8" standalone="no" ?>
<gpx xmlns="http://www.topografix.com/GPX/1/1" xmlns:xsi="http://www.w3.org/2001/XMLSchema-instance" xsi:schemaLocation="http://www.topografix.com/GPX/1/1 http://www.topografix.com/GPX/1/1/gpx.xsd" version="1.1" creator="VisuGPX - https://www.visugpx.com">
  <metadata>
    <name>GS21-05-06 départ viesville réellement corrigée</name>
  </metadata>
  <trk>
    <name><![CDATA[GS21-05-06 départ viesville réellement corrigée_1]]></name>
    <extensions>
      <line xmlns="http://www.topografix.com/GPX/gpx_style/0/2">
        <color>0000FF</color>
        <width>4</width>
      </line>
    </extensions>
    <trkseg>
      <trkpt lat="50.4906" lon="4.408">
        <ele>120.8</ele>
        <time>2021-05-06T12:02:17Z</time>
      </trkpt>
      <trkpt lat="50.4906" lon="4.408">
        <ele>120.8</ele>
        <time>2021-05-06T12:02:17Z</time>
      </trkpt>
      <trkpt lat="50.49062" lon="4.40827">
        <ele>123</ele>
        <time>2021-05-06T12:02:31Z</time>
      </trkpt>
      <trkpt lat="50.49065" lon="4.40863">
        <ele>123.6</ele>
        <time>2021-05-06T12:02:39Z</time>
      </trkpt>
      <trkpt lat="50.49026" lon="4.40885">
        <ele>124.6</ele>
        <time>2021-05-06T12:02:50Z</time>
      </trkpt>
      <trkpt lat="50.49006" lon="4.40896">
        <ele>124</ele>
        <time>2021-05-06T12:02:59Z</time>
      </trkpt>
      <trkpt lat="50.48994" lon="4.40905">
        <ele>123.8</ele>
        <time>2021-05-06T12:03:03Z</time>
      </trkpt>
      <trkpt lat="50.48971" lon="4.40922">
        <ele>124.2</ele>
      </trkpt>
      <trkpt lat="50.48978" lon="4.40931">
        <ele>123.8</ele>
        <time>2021-05-06T12:03:12Z</time>
      </trkpt>
      <trkpt lat="50.48991" lon="4.40955">
        <ele>124.3</ele>
        <time>2021-05-06T12:03:24Z</time>
      </trkpt>
      <trkpt lat="50.49003" lon="4.40972">
        <ele>124.3</ele>
      </trkpt>
      <trkpt lat="50.49008" lon="4.4098">
        <ele>124.5</ele>
      </trkpt>
      <trkpt lat="50.49013" lon="4.4099">
        <ele>123.8</ele>
        <time>2021-05-06T12:03:44Z</time>
      </trkpt>
      <trkpt lat="50.49013" lon="4.4099">
        <ele>124</ele>
        <time>2021-05-06T12:04:12Z</time>
      </trkpt>
      <trkpt lat="50.49027" lon="4.41009">
        <ele>124.6</ele>
        <time>2021-05-06T12:04:32Z</time>
      </trkpt>
      <trkpt lat="50.49018" lon="4.41017">
        <ele>124.9</ele>
        <time>2021-05-06T12:04:35Z</time>
      </trkpt>
      <trkpt lat="50.49006" lon="4.4103">
        <ele>125.3</ele>
      </trkpt>
      <trkpt lat="50.48994" lon="4.41048">
        <ele>124.8</ele>
        <time>2021-05-06T12:04:45Z</time>
      </trkpt>
      <trkpt lat="50.4896" lon="4.41098">
        <ele>125.6</ele>
        <time>2021-05-06T12:05:00Z</time>
      </trkpt>
      <trkpt lat="50.4893" lon="4.41139">
        <ele>126</ele>
        <time>2021-05-06T12:05:10Z</time>
      </trkpt>
      <trkpt lat="50.48897" lon="4.4118">
        <ele>126.6</ele>
        <time>2021-05-06T12:05:20Z</time>
      </trkpt>
      <trkpt lat="50.48883" lon="4.41195">
        <ele>134.4</ele>
      </trkpt>
      <trkpt lat="50.48869" lon="4.41204">
        <ele>127.4</ele>
        <time>2021-05-06T12:05:30Z</time>
      </trkpt>
      <trkpt lat="50.48846" lon="4.41215">
        <ele>136</ele>
      </trkpt>
      <trkpt lat="50.48824" lon="4.41217">
        <ele>128.6</ele>
        <time>2021-05-06T12:05:45Z</time>
      </trkpt>
      <trkpt lat="50.4879" lon="4.41201">
        <ele>129.8</ele>
        <time>2021-05-06T12:05:58Z</time>
      </trkpt>
      <trkpt lat="50.48757" lon="4.4119">
        <ele>130.2</ele>
        <time>2021-05-06T12:06:09Z</time>
      </trkpt>
      <trkpt lat="50.48715" lon="4.41179">
        <ele>140.7</ele>
      </trkpt>
      <trkpt lat="50.487" lon="4.41181">
        <ele>141</ele>
      </trkpt>
      <trkpt lat="50.48692" lon="4.41164">
        <ele>141.4</ele>
        <time>2021-05-06T12:06:29Z</time>
      </trkpt>
      <trkpt lat="50.48644" lon="4.41146">
        <ele>131.2</ele>
        <time>2021-05-06T12:06:42Z</time>
      </trkpt>
      <trkpt lat="50.48622" lon="4.41131">
        <ele>142.5</ele>
      </trkpt>
      <trkpt lat="50.48606" lon="4.41182">
        <ele>132</ele>
        <time>2021-05-06T12:06:58Z</time>
      </trkpt>
      <trkpt lat="50.48595" lon="4.41211">
        <ele>140.9</ele>
      </trkpt>
      <trkpt lat="50.48579" lon="4.41227">
        <ele>140.5</ele>
        <time>2021-05-06T12:07:08Z</time>
      </trkpt>
      <trkpt lat="50.48529" lon="4.41309">
        <ele>132.2</ele>
        <time>2021-05-06T12:07:21Z</time>
      </trkpt>
      <trkpt lat="50.48488" lon="4.41366">
        <ele>131.6</ele>
        <time>2021-05-06T12:07:33Z</time>
      </trkpt>
      <trkpt lat="50.48456" lon="4.41399">
        <ele>131.2</ele>
        <time>2021-05-06T12:07:43Z</time>
      </trkpt>
      <trkpt lat="50.48407" lon="4.41452">
        <ele>132</ele>
        <time>2021-05-06T12:08:01Z</time>
      </trkpt>
      <trkpt lat="50.48376" lon="4.41491">
        <ele>133.6</ele>
        <time>2021-05-06T12:08:13Z</time>
      </trkpt>
      <trkpt lat="50.48335" lon="4.41543">
        <ele>134.8</ele>
        <time>2021-05-06T12:08:29Z</time>
      </trkpt>
      <trkpt lat="50.48308" lon="4.41586">
        <ele>135.8</ele>
        <time>2021-05-06T12:08:40Z</time>
      </trkpt>
      <trkpt lat="50.4827" lon="4.41672">
        <ele>137.2</ele>
        <time>2021-05-06T12:08:58Z</time>
      </trkpt>
      <trkpt lat="50.4826" lon="4.41698">
        <ele>137.8</ele>
        <time>2021-05-06T12:09:05Z</time>
      </trkpt>
      <trkpt lat="50.48235" lon="4.41685">
        <ele>138.8</ele>
        <time>2021-05-06T12:09:13Z</time>
      </trkpt>
      <trkpt lat="50.48187" lon="4.41649">
        <ele>140</ele>
        <time>2021-05-06T12:09:26Z</time>
      </trkpt>
      <trkpt lat="50.48145" lon="4.41625">
        <ele>142</ele>
        <time>2021-05-06T12:09:39Z</time>
      </trkpt>
      <trkpt lat="50.4808" lon="4.41584">
        <ele>144.4</ele>
        <time>2021-05-06T12:09:59Z</time>
      </trkpt>
      <trkpt lat="50.48031" lon="4.41543">
        <ele>146.4</ele>
        <time>2021-05-06T12:10:15Z</time>
      </trkpt>
      <trkpt lat="50.47988" lon="4.41446">
        <ele>148.2</ele>
        <time>2021-05-06T12:10:34Z</time>
      </trkpt>
      <trkpt lat="50.47981" lon="4.41422">
        <ele>149</ele>
        <time>2021-05-06T12:10:38Z</time>
      </trkpt>
      <trkpt lat="50.47973" lon="4.41399">
        <ele>149.4</ele>
        <time>2021-05-06T12:10:42Z</time>
      </trkpt>
      <trkpt lat="50.47965" lon="4.41382">
        <ele>164.1</ele>
      </trkpt>
      <trkpt lat="50.47963" lon="4.41359">
        <ele>150</ele>
        <time>2021-05-06T12:10:49Z</time>
      </trkpt>
      <trkpt lat="50.47971" lon="4.41315">
        <ele>150.2</ele>
        <time>2021-05-06T12:10:55Z</time>
      </trkpt>
      <trkpt lat="50.47949" lon="4.41321">
        <ele>150.4</ele>
        <time>2021-05-06T12:11:04Z</time>
      </trkpt>
      <trkpt lat="50.47921" lon="4.41359">
        <ele>150.6</ele>
        <time>2021-05-06T12:11:14Z</time>
      </trkpt>
      <trkpt lat="50.4789" lon="4.41419">
        <ele>150.2</ele>
        <time>2021-05-06T12:11:27Z</time>
      </trkpt>
      <trkpt lat="50.47869" lon="4.4146">
        <ele>150</ele>
        <time>2021-05-06T12:11:35Z</time>
      </trkpt>
      <trkpt lat="50.47862" lon="4.41473">
        <ele>168.2</ele>
      </trkpt>
      <trkpt lat="50.47857" lon="4.41459">
        <ele>150.2</ele>
        <time>2021-05-06T12:11:39Z</time>
      </trkpt>
      <trkpt lat="50.47853" lon="4.4145">
        <ele>169.9</ele>
        <time>2021-05-06T12:11:44Z</time>
      </trkpt>
      <trkpt lat="50.47844" lon="4.41443">
        <ele>150</ele>
        <time>2021-05-06T12:11:47Z</time>
      </trkpt>
      <trkpt lat="50.47826" lon="4.4141">
        <ele>173.4</ele>
        <time>2021-05-06T12:11:55Z</time>
      </trkpt>
      <trkpt lat="50.47813" lon="4.41386">
        <ele>174.2</ele>
      </trkpt>
      <trkpt lat="50.47803" lon="4.41364">
        <ele>174.9</ele>
        <time>2021-05-06T12:12:05Z</time>
      </trkpt>
      <trkpt lat="50.47782" lon="4.4132">
        <ele>175.7</ele>
        <time>2021-05-06T12:12:17Z</time>
      </trkpt>
      <trkpt lat="50.4778" lon="4.41307">
        <ele>152</ele>
        <time>2021-05-06T12:12:23Z</time>
      </trkpt>
      <trkpt lat="50.4778" lon="4.41302">
        <ele>152.4</ele>
        <time>2021-05-06T12:12:29Z</time>
      </trkpt>
      <trkpt lat="50.4778" lon="4.41301">
        <ele>155.4</ele>
        <time>2021-05-06T12:13:13Z</time>
      </trkpt>
      <trkpt lat="50.4778" lon="4.41296">
        <ele>156.4</ele>
        <time>2021-05-06T12:13:36Z</time>
      </trkpt>
      <trkpt lat="50.47786" lon="4.41271">
        <ele>174.9</ele>
      </trkpt>
      <trkpt lat="50.47786" lon="4.41248">
        <ele>157.4</ele>
        <time>2021-05-06T12:13:45Z</time>
      </trkpt>
      <trkpt lat="50.47786" lon="4.41227">
        <ele>174.4</ele>
      </trkpt>
      <trkpt lat="50.47786" lon="4.41205">
        <ele>174.2</ele>
        <time>2021-05-06T12:13:52Z</time>
      </trkpt>
      <trkpt lat="50.47791" lon="4.4113">
        <ele>159</ele>
        <time>2021-05-06T12:14:07Z</time>
      </trkpt>
      <trkpt lat="50.47788" lon="4.4111">
        <ele>171.3</ele>
      </trkpt>
      <trkpt lat="50.47789" lon="4.4109">
        <ele>170.4</ele>
        <time>2021-05-06T12:14:14Z</time>
      </trkpt>
      <trkpt lat="50.47788" lon="4.41061">
        <ele>169.4</ele>
        <time>2021-05-06T12:14:20Z</time>
      </trkpt>
      <trkpt lat="50.47791" lon="4.41034">
        <ele>168.3</ele>
        <time>2021-05-06T12:14:25Z</time>
      </trkpt>
      <trkpt lat="50.47786" lon="4.41012">
        <ele>167.9</ele>
      </trkpt>
      <trkpt lat="50.47782" lon="4.41">
        <ele>167.9</ele>
      </trkpt>
      <trkpt lat="50.47777" lon="4.4099">
        <ele>167.6</ele>
        <time>2021-05-06T12:14:31Z</time>
      </trkpt>
      <trkpt lat="50.47761" lon="4.40993">
        <ele>169.3</ele>
      </trkpt>
      <trkpt lat="50.47754" lon="4.40995">
        <ele>170.2</ele>
      </trkpt>
      <trkpt lat="50.47744" lon="4.40992">
        <ele>170.2</ele>
        <time>2021-05-06T12:14:39Z</time>
      </trkpt>
      <trkpt lat="50.47722" lon="4.40994">
        <ele>170.5</ele>
        <time>2021-05-06T12:14:43Z</time>
      </trkpt>
      <trkpt lat="50.47696" lon="4.40996">
        <ele>170.7</ele>
        <time>2021-05-06T12:14:50Z</time>
      </trkpt>
      <trkpt lat="50.47661" lon="4.41004">
        <ele>157.2</ele>
        <time>2021-05-06T12:14:58Z</time>
      </trkpt>
      <trkpt lat="50.47642" lon="4.41007">
        <ele>156.8</ele>
        <time>2021-05-06T12:15:02Z</time>
      </trkpt>
      <trkpt lat="50.47615" lon="4.41007">
        <ele>156</ele>
        <time>2021-05-06T12:15:09Z</time>
      </trkpt>
      <trkpt lat="50.47598" lon="4.40981">
        <ele>154.8</ele>
        <time>2021-05-06T12:15:15Z</time>
      </trkpt>
      <trkpt lat="50.47582" lon="4.40942">
        <ele>153.2</ele>
        <time>2021-05-06T12:15:22Z</time>
      </trkpt>
      <trkpt lat="50.47577" lon="4.40905">
        <ele>152.2</ele>
        <time>2021-05-06T12:15:27Z</time>
      </trkpt>
      <trkpt lat="50.47572" lon="4.40838">
        <ele>150</ele>
        <time>2021-05-06T12:15:35Z</time>
      </trkpt>
      <trkpt lat="50.4757" lon="4.40786">
        <ele>147.6</ele>
        <time>2021-05-06T12:15:41Z</time>
      </trkpt>
      <trkpt lat="50.47563" lon="4.40733">
        <ele>159.3</ele>
        <time>2021-05-06T12:15:47Z</time>
      </trkpt>
      <trkpt lat="50.47545" lon="4.40654">
        <ele>152</ele>
        <time>2021-05-06T12:15:56Z</time>
      </trkpt>
      <trkpt lat="50.47531" lon="4.40632">
        <ele>149.2</ele>
        <time>2021-05-06T12:15:59Z</time>
      </trkpt>
      <trkpt lat="50.47516" lon="4.40619">
        <ele>147.3</ele>
      </trkpt>
      <trkpt lat="50.47498" lon="4.4061">
        <ele>146.2</ele>
      </trkpt>
      <trkpt lat="50.47452" lon="4.40595">
        <ele>140.2</ele>
        <time>2021-05-06T12:16:14Z</time>
      </trkpt>
      <trkpt lat="50.4742" lon="4.40589">
        <ele>140.2</ele>
        <time>2021-05-06T12:16:21Z</time>
      </trkpt>
      <trkpt lat="50.47394" lon="4.40585">
        <ele>157.1</ele>
      </trkpt>
      <trkpt lat="50.47372" lon="4.40563">
        <ele>139.2</ele>
        <time>2021-05-06T12:16:35Z</time>
      </trkpt>
      <trkpt lat="50.47361" lon="4.40551">
        <ele>158.6</ele>
        <time>2021-05-06T12:16:40Z</time>
      </trkpt>
      <trkpt lat="50.47339" lon="4.40514">
        <ele>159</ele>
        <time>2021-05-06T12:16:48Z</time>
      </trkpt>
      <trkpt lat="50.47284" lon="4.40413">
        <ele>136.4</ele>
        <time>2021-05-06T12:17:00Z</time>
      </trkpt>
      <trkpt lat="50.47248" lon="4.40347">
        <ele>134</ele>
        <time>2021-05-06T12:17:08Z</time>
      </trkpt>
      <trkpt lat="50.4722" lon="4.40329">
        <ele>132</ele>
        <time>2021-05-06T12:17:13Z</time>
      </trkpt>
      <trkpt lat="50.47158" lon="4.40297">
        <ele>140.5</ele>
        <time>2021-05-06T12:17:24Z</time>
      </trkpt>
      <trkpt lat="50.47114" lon="4.40279">
        <ele>133.7</ele>
        <time>2021-05-06T12:17:34Z</time>
      </trkpt>
      <trkpt lat="50.47103" lon="4.40273">
        <ele>131.9</ele>
        <time>2021-05-06T12:17:40Z</time>
      </trkpt>
      <trkpt lat="50.47099" lon="4.40277">
        <ele>119.8</ele>
        <time>2021-05-06T12:17:46Z</time>
      </trkpt>
      <trkpt lat="50.47099" lon="4.40275">
        <ele>131.4</ele>
        <time>2021-05-06T12:18:45Z</time>
      </trkpt>
      <trkpt lat="50.47098" lon="4.40272">
        <ele>131.1</ele>
      </trkpt>
      <trkpt lat="50.471" lon="4.40272">
        <ele>131.3</ele>
      </trkpt>
      <trkpt lat="50.47095" lon="4.4027">
        <ele>130.6</ele>
      </trkpt>
      <trkpt lat="50.4709" lon="4.40267">
        <ele>129.7</ele>
        <time>2021-05-06T12:20:39Z</time>
      </trkpt>
      <trkpt lat="50.47081" lon="4.40263">
        <ele>128.5</ele>
      </trkpt>
      <trkpt lat="50.47073" lon="4.40256">
        <ele>127.6</ele>
      </trkpt>
      <trkpt lat="50.47069" lon="4.40256">
        <ele>127.4</ele>
        <time>2021-05-06T12:22:18Z</time>
      </trkpt>
      <trkpt lat="50.47063" lon="4.40242">
        <ele>126.5</ele>
      </trkpt>
      <trkpt lat="50.47059" lon="4.40225">
        <ele>107.2</ele>
        <time>2021-05-06T12:22:33Z</time>
      </trkpt>
      <trkpt lat="50.47054" lon="4.40199">
        <ele>106.8</ele>
        <time>2021-05-06T12:22:37Z</time>
      </trkpt>
      <trkpt lat="50.47047" lon="4.40146">
        <ele>123</ele>
        <time>2021-05-06T12:22:44Z</time>
      </trkpt>
      <trkpt lat="50.47041" lon="4.40096">
        <ele>121</ele>
        <time>2021-05-06T12:22:51Z</time>
      </trkpt>
      <trkpt lat="50.47049" lon="4.40091">
        <ele>121</ele>
        <time>2021-05-06T12:23:01Z</time>
      </trkpt>
      <trkpt lat="50.47096" lon="4.40077">
        <ele>122.6</ele>
      </trkpt>
      <trkpt lat="50.47119" lon="4.40073">
        <ele>123.9</ele>
      </trkpt>
      <trkpt lat="50.47142" lon="4.40067">
        <ele>124.9</ele>
        <time>2021-05-06T12:23:19Z</time>
      </trkpt>
      <trkpt lat="50.4719" lon="4.40058">
        <ele>125.5</ele>
      </trkpt>
      <trkpt lat="50.47239" lon="4.40049">
        <ele>125.1</ele>
        <time>2021-05-06T12:23:33Z</time>
      </trkpt>
      <trkpt lat="50.47288" lon="4.40055">
        <ele>125.3</ele>
        <time>2021-05-06T12:23:40Z</time>
      </trkpt>
      <trkpt lat="50.47344" lon="4.40081">
        <ele>126</ele>
        <time>2021-05-06T12:23:49Z</time>
      </trkpt>
      <trkpt lat="50.47397" lon="4.40115">
        <ele>104.2</ele>
        <time>2021-05-06T12:24:03Z</time>
      </trkpt>
      <trkpt lat="50.47398" lon="4.40109">
        <ele>104.6</ele>
        <time>2021-05-06T12:24:10Z</time>
      </trkpt>
      <trkpt lat="50.47397" lon="4.40104">
        <ele>104.6</ele>
        <time>2021-05-06T12:24:17Z</time>
      </trkpt>
      <trkpt lat="50.47393" lon="4.40079">
        <ele>121.8</ele>
        <time>2021-05-06T12:24:25Z</time>
      </trkpt>
      <trkpt lat="50.47416" lon="4.4009">
        <ele>104.8</ele>
        <time>2021-05-06T12:24:29Z</time>
      </trkpt>
      <trkpt lat="50.47448" lon="4.40082">
        <ele>104.6</ele>
        <time>2021-05-06T12:24:35Z</time>
      </trkpt>
      <trkpt lat="50.47467" lon="4.40053">
        <ele>121.9</ele>
        <time>2021-05-06T12:24:40Z</time>
      </trkpt>
      <trkpt lat="50.47509" lon="4.39989">
        <ele>123.7</ele>
      </trkpt>
      <trkpt lat="50.47569" lon="4.39952">
        <ele>103.8</ele>
        <time>2021-05-06T12:25:01Z</time>
      </trkpt>
      <trkpt lat="50.47642" lon="4.39902">
        <ele>104.2</ele>
        <time>2021-05-06T12:25:15Z</time>
      </trkpt>
      <trkpt lat="50.47719" lon="4.39836">
        <ele>104.2</ele>
        <time>2021-05-06T12:25:31Z</time>
      </trkpt>
      <trkpt lat="50.47804" lon="4.39737">
        <ele>104.6</ele>
        <time>2021-05-06T12:25:49Z</time>
      </trkpt>
      <trkpt lat="50.47871" lon="4.39641">
        <ele>104.8</ele>
        <time>2021-05-06T12:26:05Z</time>
      </trkpt>
      <trkpt lat="50.47949" lon="4.39559">
        <ele>105.8</ele>
        <time>2021-05-06T12:26:26Z</time>
      </trkpt>
      <trkpt lat="50.47964" lon="4.39545">
        <ele>122</ele>
        <time>2021-05-06T12:26:33Z</time>
      </trkpt>
      <trkpt lat="50.4798" lon="4.39515">
        <ele>122.3</ele>
      </trkpt>
      <trkpt lat="50.48001" lon="4.3949">
        <ele>106.6</ele>
        <time>2021-05-06T12:26:44Z</time>
      </trkpt>
      <trkpt lat="50.48008" lon="4.39482">
        <ele>106.4</ele>
        <time>2021-05-06T12:26:46Z</time>
      </trkpt>
      <trkpt lat="50.48039" lon="4.39443">
        <ele>106.6</ele>
        <time>2021-05-06T12:26:55Z</time>
      </trkpt>
      <trkpt lat="50.48049" lon="4.39419">
        <ele>127.3</ele>
        <time>2021-05-06T12:27:00Z</time>
      </trkpt>
      <trkpt lat="50.48035" lon="4.39395">
        <ele>106.8</ele>
        <time>2021-05-06T12:27:03Z</time>
      </trkpt>
      <trkpt lat="50.48004" lon="4.39346">
        <ele>107.2</ele>
        <time>2021-05-06T12:27:11Z</time>
      </trkpt>
      <trkpt lat="50.48" lon="4.39338">
        <ele>118.1</ele>
      </trkpt>
      <trkpt lat="50.47992" lon="4.39337">
        <ele>107.4</ele>
        <time>2021-05-06T12:27:14Z</time>
      </trkpt>
      <trkpt lat="50.47947" lon="4.39365">
        <ele>107.8</ele>
        <time>2021-05-06T12:27:24Z</time>
      </trkpt>
      <trkpt lat="50.47937" lon="4.39364">
        <ele>118.2</ele>
      </trkpt>
      <trkpt lat="50.47929" lon="4.39357">
        <ele>118.1</ele>
        <time>2021-05-06T12:27:27Z</time>
      </trkpt>
      <trkpt lat="50.47913" lon="4.3933">
        <ele>118.3</ele>
      </trkpt>
      <trkpt lat="50.47922" lon="4.39312">
        <ele>118</ele>
        <time>2021-05-06T12:27:33Z</time>
      </trkpt>
      <trkpt lat="50.47926" lon="4.39266">
        <ele>118.1</ele>
        <time>2021-05-06T12:27:38Z</time>
      </trkpt>
      <trkpt lat="50.47924" lon="4.39219">
        <ele>118.1</ele>
      </trkpt>
      <trkpt lat="50.47928" lon="4.39172">
        <ele>107.8</ele>
        <time>2021-05-06T12:27:48Z</time>
      </trkpt>
      <trkpt lat="50.47949" lon="4.39102">
        <ele>107.8</ele>
        <time>2021-05-06T12:27:58Z</time>
      </trkpt>
      <trkpt lat="50.47967" lon="4.39058">
        <ele>117.2</ele>
      </trkpt>
      <trkpt lat="50.47989" lon="4.3902">
        <ele>116.5</ele>
        <time>2021-05-06T12:28:11Z</time>
      </trkpt>
      <trkpt lat="50.48036" lon="4.38968">
        <ele>118</ele>
      </trkpt>
      <trkpt lat="50.48062" lon="4.38952">
        <ele>118.8</ele>
      </trkpt>
      <trkpt lat="50.48075" lon="4.38942">
        <ele>119.1</ele>
      </trkpt>
      <trkpt lat="50.4809" lon="4.38927">
        <ele>119.4</ele>
        <time>2021-05-06T12:28:33Z</time>
      </trkpt>
      <trkpt lat="50.48146" lon="4.3889">
        <ele>117.9</ele>
        <time>2021-05-06T12:28:45Z</time>
      </trkpt>
      <trkpt lat="50.48179" lon="4.38867">
        <ele>117.8</ele>
        <time>2021-05-06T12:28:52Z</time>
      </trkpt>
      <trkpt lat="50.48197" lon="4.38853">
        <ele>107.2</ele>
        <time>2021-05-06T12:30:36Z</time>
      </trkpt>
      <trkpt lat="50.48197" lon="4.38853">
        <ele>107.2</ele>
        <time>2021-05-06T12:31:09Z</time>
      </trkpt>
      <trkpt lat="50.48211" lon="4.38876">
        <ele>106.8</ele>
        <time>2021-05-06T12:31:35Z</time>
      </trkpt>
      <trkpt lat="50.48225" lon="4.38878">
        <ele>120.5</ele>
        <time>2021-05-06T12:31:43Z</time>
      </trkpt>
      <trkpt lat="50.48235" lon="4.3887">
        <ele>121.1</ele>
      </trkpt>
      <trkpt lat="50.48248" lon="4.38874">
        <ele>121.9</ele>
        <time>2021-05-06T12:31:49Z</time>
      </trkpt>
      <trkpt lat="50.48264" lon="4.38876">
        <ele>105.2</ele>
        <time>2021-05-06T12:31:54Z</time>
      </trkpt>
      <trkpt lat="50.48273" lon="4.38876">
        <ele>105</ele>
        <time>2021-05-06T12:31:59Z</time>
      </trkpt>
      <trkpt lat="50.48278" lon="4.38874">
        <ele>104.6</ele>
        <time>2021-05-06T12:32:22Z</time>
      </trkpt>
      <trkpt lat="50.48282" lon="4.38865">
        <ele>104.2</ele>
        <time>2021-05-06T12:32:42Z</time>
      </trkpt>
      <trkpt lat="50.48291" lon="4.38869">
        <ele>104.2</ele>
        <time>2021-05-06T12:32:45Z</time>
      </trkpt>
      <trkpt lat="50.48322" lon="4.38858">
        <ele>105.2</ele>
        <time>2021-05-06T12:32:57Z</time>
      </trkpt>
      <trkpt lat="50.48339" lon="4.38847">
        <ele>106</ele>
        <time>2021-05-06T12:33:05Z</time>
      </trkpt>
      <trkpt lat="50.48343" lon="4.3884">
        <ele>123.5</ele>
        <time>2021-05-06T12:33:10Z</time>
      </trkpt>
      <trkpt lat="50.48352" lon="4.38833">
        <ele>123.9</ele>
        <time>2021-05-06T12:33:13Z</time>
      </trkpt>
      <trkpt lat="50.48369" lon="4.38818">
        <ele>123.8</ele>
        <time>2021-05-06T12:33:20Z</time>
      </trkpt>
      <trkpt lat="50.48382" lon="4.38807">
        <ele>109.4</ele>
        <time>2021-05-06T12:33:27Z</time>
      </trkpt>
      <trkpt lat="50.48394" lon="4.38802">
        <ele>124.3</ele>
        <time>2021-05-06T12:33:32Z</time>
      </trkpt>
      <trkpt lat="50.48416" lon="4.38798">
        <ele>111.8</ele>
        <time>2021-05-06T12:33:43Z</time>
      </trkpt>
      <trkpt lat="50.48426" lon="4.38797">
        <ele>112.2</ele>
        <time>2021-05-06T12:33:47Z</time>
      </trkpt>
      <trkpt lat="50.4844" lon="4.38797">
        <ele>112.6</ele>
        <time>2021-05-06T12:33:53Z</time>
      </trkpt>
      <trkpt lat="50.48457" lon="4.38788">
        <ele>113</ele>
        <time>2021-05-06T12:34:01Z</time>
      </trkpt>
      <trkpt lat="50.48466" lon="4.38788">
        <ele>113</ele>
        <time>2021-05-06T12:34:05Z</time>
      </trkpt>
      <trkpt lat="50.48484" lon="4.38773">
        <ele>113</ele>
        <time>2021-05-06T12:34:13Z</time>
      </trkpt>
      <trkpt lat="50.48492" lon="4.3877">
        <ele>112.2</ele>
        <time>2021-05-06T12:34:16Z</time>
      </trkpt>
      <trkpt lat="50.48512" lon="4.38757">
        <ele>111.2</ele>
        <time>2021-05-06T12:34:30Z</time>
      </trkpt>
      <trkpt lat="50.48521" lon="4.38751">
        <ele>110.2</ele>
        <time>2021-05-06T12:34:48Z</time>
      </trkpt>
      <trkpt lat="50.48548" lon="4.38735">
        <ele>110.4</ele>
        <time>2021-05-06T12:34:56Z</time>
      </trkpt>
      <trkpt lat="50.48552" lon="4.38733">
        <ele>111</ele>
        <time>2021-05-06T12:35:01Z</time>
      </trkpt>
      <trkpt lat="50.48552" lon="4.38733">
        <ele>111.4</ele>
        <time>2021-05-06T12:35:31Z</time>
      </trkpt>
      <trkpt lat="50.48562" lon="4.38731">
        <ele>112.4</ele>
        <time>2021-05-06T12:36:02Z</time>
      </trkpt>
      <trkpt lat="50.48578" lon="4.38737">
        <ele>113.2</ele>
        <time>2021-05-06T12:36:09Z</time>
      </trkpt>
      <trkpt lat="50.486" lon="4.38736">
        <ele>114</ele>
        <time>2021-05-06T12:36:21Z</time>
      </trkpt>
      <trkpt lat="50.48608" lon="4.38736">
        <ele>114.4</ele>
        <time>2021-05-06T12:36:26Z</time>
      </trkpt>
      <trkpt lat="50.48628" lon="4.38739">
        <ele>124.9</ele>
        <time>2021-05-06T12:36:34Z</time>
      </trkpt>
      <trkpt lat="50.48636" lon="4.38738">
        <ele>124.7</ele>
        <time>2021-05-06T12:36:38Z</time>
      </trkpt>
      <trkpt lat="50.4865" lon="4.38731">
        <ele>113.6</ele>
        <time>2021-05-06T12:36:44Z</time>
      </trkpt>
      <trkpt lat="50.48663" lon="4.38724">
        <ele>124.1</ele>
      </trkpt>
      <trkpt lat="50.48678" lon="4.38711">
        <ele>124</ele>
        <time>2021-05-06T12:36:55Z</time>
      </trkpt>
      <trkpt lat="50.48718" lon="4.38688">
        <ele>124</ele>
        <time>2021-05-06T12:37:05Z</time>
      </trkpt>
      <trkpt lat="50.48732" lon="4.38658">
        <ele>123.8</ele>
        <time>2021-05-06T12:37:18Z</time>
      </trkpt>
      <trkpt lat="50.48751" lon="4.38638">
        <ele>123.4</ele>
        <time>2021-05-06T12:37:31Z</time>
      </trkpt>
      <trkpt lat="50.488" lon="4.38594">
        <ele>125.2</ele>
        <time>2021-05-06T12:37:47Z</time>
      </trkpt>
      <trkpt lat="50.48797" lon="4.38527">
        <ele>123.8</ele>
        <time>2021-05-06T12:37:55Z</time>
      </trkpt>
      <trkpt lat="50.48795" lon="4.38504">
        <ele>116</ele>
        <time>2021-05-06T12:38:00Z</time>
      </trkpt>
      <trkpt lat="50.48796" lon="4.38478">
        <ele>122.8</ele>
      </trkpt>
      <trkpt lat="50.48798" lon="4.38462">
        <ele>122.5</ele>
      </trkpt>
      <trkpt lat="50.48799" lon="4.38449">
        <ele>122.3</ele>
        <time>2021-05-06T12:38:08Z</time>
      </trkpt>
      <trkpt lat="50.48793" lon="4.38422">
        <ele>121.2</ele>
        <time>2021-05-06T12:38:14Z</time>
      </trkpt>
      <trkpt lat="50.48773" lon="4.38391">
        <ele>115</ele>
        <time>2021-05-06T12:38:25Z</time>
      </trkpt>
      <trkpt lat="50.48764" lon="4.38376">
        <ele>118.5</ele>
      </trkpt>
      <trkpt lat="50.4877" lon="4.38372">
        <ele>118.9</ele>
        <time>2021-05-06T12:38:28Z</time>
      </trkpt>
      <trkpt lat="50.48806" lon="4.3834">
        <ele>121.1</ele>
        <time>2021-05-06T12:38:38Z</time>
      </trkpt>
      <trkpt lat="50.48829" lon="4.38318">
        <ele>122.5</ele>
        <time>2021-05-06T12:38:44Z</time>
      </trkpt>
      <trkpt lat="50.48853" lon="4.38292">
        <ele>123.1</ele>
        <time>2021-05-06T12:38:54Z</time>
      </trkpt>
      <trkpt lat="50.48881" lon="4.38267">
        <ele>123.1</ele>
        <time>2021-05-06T12:39:03Z</time>
      </trkpt>
      <trkpt lat="50.48906" lon="4.38237">
        <ele>122.4</ele>
        <time>2021-05-06T12:39:12Z</time>
      </trkpt>
      <trkpt lat="50.48921" lon="4.382">
        <ele>121</ele>
        <time>2021-05-06T12:39:18Z</time>
      </trkpt>
      <trkpt lat="50.48939" lon="4.38152">
        <ele>119.6</ele>
        <time>2021-05-06T12:39:26Z</time>
      </trkpt>
      <trkpt lat="50.48955" lon="4.38115">
        <ele>119.7</ele>
      </trkpt>
      <trkpt lat="50.48964" lon="4.38095">
        <ele>119.8</ele>
      </trkpt>
      <trkpt lat="50.48973" lon="4.38079">
        <ele>120</ele>
        <time>2021-05-06T12:39:40Z</time>
      </trkpt>
      <trkpt lat="50.49015" lon="4.38017">
        <ele>113</ele>
        <time>2021-05-06T12:39:54Z</time>
      </trkpt>
      <trkpt lat="50.49049" lon="4.37968">
        <ele>113.4</ele>
        <time>2021-05-06T12:40:06Z</time>
      </trkpt>
      <trkpt lat="50.49056" lon="4.37958">
        <ele>122.3</ele>
      </trkpt>
      <trkpt lat="50.49064" lon="4.37948">
        <ele>122.5</ele>
      </trkpt>
      <trkpt lat="50.49072" lon="4.37976">
        <ele>121.6</ele>
        <time>2021-05-06T12:40:13Z</time>
      </trkpt>
      <trkpt lat="50.49096" lon="4.38061">
        <ele>120.2</ele>
        <time>2021-05-06T12:40:25Z</time>
      </trkpt>
      <trkpt lat="50.49125" lon="4.38142">
        <ele>112.6</ele>
        <time>2021-05-06T12:40:38Z</time>
      </trkpt>
      <trkpt lat="50.49136" lon="4.38129">
        <ele>118.1</ele>
        <time>2021-05-06T12:40:42Z</time>
      </trkpt>
      <trkpt lat="50.49176" lon="4.38067">
        <ele>112.2</ele>
        <time>2021-05-06T12:40:55Z</time>
      </trkpt>
      <trkpt lat="50.49228" lon="4.38001">
        <ele>113.4</ele>
        <time>2021-05-06T12:41:10Z</time>
      </trkpt>
      <trkpt lat="50.49256" lon="4.37973">
        <ele>122.8</ele>
      </trkpt>
      <trkpt lat="50.49286" lon="4.3795">
        <ele>114.2</ele>
        <time>2021-05-06T12:41:27Z</time>
      </trkpt>
      <trkpt lat="50.49357" lon="4.37895">
        <ele>116.4</ele>
        <time>2021-05-06T12:41:49Z</time>
      </trkpt>
      <trkpt lat="50.49415" lon="4.37851">
        <ele>119</ele>
        <time>2021-05-06T12:42:07Z</time>
      </trkpt>
      <trkpt lat="50.49455" lon="4.37818">
        <ele>132.7</ele>
      </trkpt>
      <trkpt lat="50.49475" lon="4.37801">
        <ele>132.5</ele>
      </trkpt>
      <trkpt lat="50.49488" lon="4.37792">
        <ele>132.4</ele>
      </trkpt>
      <trkpt lat="50.49498" lon="4.37791">
        <ele>132.1</ele>
        <time>2021-05-06T12:42:26Z</time>
      </trkpt>
      <trkpt lat="50.49521" lon="4.37791">
        <ele>122</ele>
        <time>2021-05-06T12:42:31Z</time>
      </trkpt>
      <trkpt lat="50.496" lon="4.37789">
        <ele>124.4</ele>
        <time>2021-05-06T12:42:49Z</time>
      </trkpt>
      <trkpt lat="50.49607" lon="4.37828">
        <ele>125.4</ele>
        <time>2021-05-06T12:42:56Z</time>
      </trkpt>
      <trkpt lat="50.49617" lon="4.37923">
        <ele>127</ele>
        <time>2021-05-06T12:43:09Z</time>
      </trkpt>
      <trkpt lat="50.49626" lon="4.37979">
        <ele>138.3</ele>
      </trkpt>
      <trkpt lat="50.49633" lon="4.37992">
        <ele>128.2</ele>
        <time>2021-05-06T12:43:20Z</time>
      </trkpt>
      <trkpt lat="50.49646" lon="4.37986">
        <ele>128.4</ele>
        <time>2021-05-06T12:43:23Z</time>
      </trkpt>
      <trkpt lat="50.4973" lon="4.37892">
        <ele>131.6</ele>
        <time>2021-05-06T12:43:47Z</time>
      </trkpt>
      <trkpt lat="50.49766" lon="4.37861">
        <ele>133</ele>
        <time>2021-05-06T12:43:59Z</time>
      </trkpt>
      <trkpt lat="50.49796" lon="4.37867">
        <ele>134</ele>
        <time>2021-05-06T12:44:09Z</time>
      </trkpt>
      <trkpt lat="50.49858" lon="4.37875">
        <ele>134.4</ele>
        <time>2021-05-06T12:44:23Z</time>
      </trkpt>
      <trkpt lat="50.49927" lon="4.37881">
        <ele>134.6</ele>
        <time>2021-05-06T12:44:35Z</time>
      </trkpt>
      <trkpt lat="50.50082" lon="4.37904">
        <ele>131.8</ele>
        <time>2021-05-06T12:45:01Z</time>
      </trkpt>
      <trkpt lat="50.50118" lon="4.37897">
        <ele>132.7</ele>
        <time>2021-05-06T12:45:11Z</time>
      </trkpt>
      <trkpt lat="50.50167" lon="4.37865">
        <ele>132</ele>
        <time>2021-05-06T12:45:31Z</time>
      </trkpt>
      <trkpt lat="50.50185" lon="4.37854">
        <ele>133.1</ele>
      </trkpt>
      <trkpt lat="50.50202" lon="4.37848">
        <ele>134.2</ele>
        <time>2021-05-06T12:45:42Z</time>
      </trkpt>
      <trkpt lat="50.50229" lon="4.37817">
        <ele>136.8</ele>
        <time>2021-05-06T12:45:53Z</time>
      </trkpt>
      <trkpt lat="50.50248" lon="4.37798">
        <ele>130.6</ele>
        <time>2021-05-06T12:46:00Z</time>
      </trkpt>
      <trkpt lat="50.50253" lon="4.37791">
        <ele>138.5</ele>
      </trkpt>
      <trkpt lat="50.50242" lon="4.37774">
        <ele>131</ele>
        <time>2021-05-06T12:46:07Z</time>
      </trkpt>
      <trkpt lat="50.50208" lon="4.37713">
        <ele>131.8</ele>
        <time>2021-05-06T12:46:23Z</time>
      </trkpt>
      <trkpt lat="50.50185" lon="4.37672">
        <ele>132.4</ele>
        <time>2021-05-06T12:46:37Z</time>
      </trkpt>
      <trkpt lat="50.50158" lon="4.37613">
        <ele>133.2</ele>
        <time>2021-05-06T12:46:56Z</time>
      </trkpt>
      <trkpt lat="50.50138" lon="4.37568">
        <ele>133.8</ele>
        <time>2021-05-06T12:47:09Z</time>
      </trkpt>
      <trkpt lat="50.50106" lon="4.37505">
        <ele>134.8</ele>
        <time>2021-05-06T12:47:25Z</time>
      </trkpt>
      <trkpt lat="50.50083" lon="4.37463">
        <ele>135</ele>
        <time>2021-05-06T12:47:34Z</time>
      </trkpt>
      <trkpt lat="50.5007" lon="4.3743">
        <ele>141.2</ele>
        <time>2021-05-06T12:47:44Z</time>
      </trkpt>
      <trkpt lat="50.50095" lon="4.37391">
        <ele>136</ele>
        <time>2021-05-06T12:47:51Z</time>
      </trkpt>
      <trkpt lat="50.50113" lon="4.37362">
        <ele>136.4</ele>
        <time>2021-05-06T12:47:57Z</time>
      </trkpt>
      <trkpt lat="50.50158" lon="4.37287">
        <ele>136.8</ele>
        <time>2021-05-06T12:48:15Z</time>
      </trkpt>
      <trkpt lat="50.502" lon="4.37217">
        <ele>136.2</ele>
        <time>2021-05-06T12:48:30Z</time>
      </trkpt>
      <trkpt lat="50.50238" lon="4.37148">
        <ele>135.3</ele>
      </trkpt>
      <trkpt lat="50.5026" lon="4.37111">
        <ele>134.1</ele>
      </trkpt>
      <trkpt lat="50.50283" lon="4.37086">
        <ele>133.2</ele>
        <time>2021-05-06T12:48:51Z</time>
      </trkpt>
      <trkpt lat="50.50349" lon="4.37007">
        <ele>131.4</ele>
        <time>2021-05-06T12:49:06Z</time>
      </trkpt>
      <trkpt lat="50.50397" lon="4.36932">
        <ele>131</ele>
        <time>2021-05-06T12:49:21Z</time>
      </trkpt>
      <trkpt lat="50.50427" lon="4.36875">
        <ele>131.8</ele>
        <time>2021-05-06T12:49:32Z</time>
      </trkpt>
      <trkpt lat="50.50442" lon="4.36847">
        <ele>131.6</ele>
        <time>2021-05-06T12:49:39Z</time>
      </trkpt>
      <trkpt lat="50.50455" lon="4.36803">
        <ele>138.7</ele>
      </trkpt>
      <trkpt lat="50.50468" lon="4.36789">
        <ele>132</ele>
        <time>2021-05-06T12:49:53Z</time>
      </trkpt>
      <trkpt lat="50.50489" lon="4.3677">
        <ele>138.2</ele>
        <time>2021-05-06T12:49:59Z</time>
      </trkpt>
      <trkpt lat="50.5056" lon="4.36684">
        <ele>132.6</ele>
        <time>2021-05-06T12:50:19Z</time>
      </trkpt>
      <trkpt lat="50.50594" lon="4.36658">
        <ele>132.2</ele>
        <time>2021-05-06T12:50:26Z</time>
      </trkpt>
      <trkpt lat="50.50648" lon="4.36617">
        <ele>130.4</ele>
        <time>2021-05-06T12:50:42Z</time>
      </trkpt>
      <trkpt lat="50.50663" lon="4.36606">
        <ele>129.7</ele>
        <time>2021-05-06T12:50:46Z</time>
      </trkpt>
      <trkpt lat="50.50692" lon="4.36584">
        <ele>128.7</ele>
        <time>2021-05-06T12:50:54Z</time>
      </trkpt>
      <trkpt lat="50.50727" lon="4.36555">
        <ele>128.2</ele>
        <time>2021-05-06T12:51:05Z</time>
      </trkpt>
      <trkpt lat="50.5078" lon="4.36538">
        <ele>125.8</ele>
        <time>2021-05-06T12:51:18Z</time>
      </trkpt>
      <trkpt lat="50.50814" lon="4.36525">
        <ele>128.5</ele>
      </trkpt>
      <trkpt lat="50.50863" lon="4.36522">
        <ele>125.8</ele>
        <time>2021-05-06T12:51:39Z</time>
      </trkpt>
      <trkpt lat="50.50921" lon="4.36517">
        <ele>125.4</ele>
        <time>2021-05-06T12:51:51Z</time>
      </trkpt>
      <trkpt lat="50.50937" lon="4.36515">
        <ele>125.2</ele>
        <time>2021-05-06T12:52:01Z</time>
      </trkpt>
      <trkpt lat="50.50945" lon="4.3651">
        <ele>130.1</ele>
        <time>2021-05-06T12:52:30Z</time>
      </trkpt>
      <trkpt lat="50.50953" lon="4.36493">
        <ele>124</ele>
        <time>2021-05-06T12:52:41Z</time>
      </trkpt>
      <trkpt lat="50.50969" lon="4.36461">
        <ele>124</ele>
        <time>2021-05-06T12:52:56Z</time>
      </trkpt>
      <trkpt lat="50.50995" lon="4.36418">
        <ele>123.6</ele>
        <time>2021-05-06T12:53:09Z</time>
      </trkpt>
      <trkpt lat="50.50974" lon="4.36381">
        <ele>129</ele>
        <time>2021-05-06T12:53:16Z</time>
      </trkpt>
      <trkpt lat="50.50993" lon="4.36357">
        <ele>127.6</ele>
        <time>2021-05-06T12:53:29Z</time>
      </trkpt>
      <trkpt lat="50.5101" lon="4.36327">
        <ele>127.1</ele>
      </trkpt>
      <trkpt lat="50.51021" lon="4.3631">
        <ele>127.6</ele>
      </trkpt>
      <trkpt lat="50.51031" lon="4.36303">
        <ele>123.8</ele>
        <time>2021-05-06T12:53:43Z</time>
      </trkpt>
      <trkpt lat="50.51048" lon="4.36269">
        <ele>123</ele>
        <time>2021-05-06T12:53:58Z</time>
      </trkpt>
      <trkpt lat="50.51048" lon="4.36269">
        <ele>121.6</ele>
        <time>2021-05-06T12:54:44Z</time>
      </trkpt>
      <trkpt lat="50.51063" lon="4.36245">
        <ele>121.8</ele>
        <time>2021-05-06T12:54:51Z</time>
      </trkpt>
      <trkpt lat="50.51082" lon="4.36213">
        <ele>122</ele>
        <time>2021-05-06T12:55:01Z</time>
      </trkpt>
      <trkpt lat="50.51098" lon="4.36179">
        <ele>122.4</ele>
        <time>2021-05-06T12:55:10Z</time>
      </trkpt>
      <trkpt lat="50.51056" lon="4.36108">
        <ele>124.2</ele>
        <time>2021-05-06T12:55:26Z</time>
      </trkpt>
      <trkpt lat="50.51024" lon="4.36062">
        <ele>125.6</ele>
        <time>2021-05-06T12:55:39Z</time>
      </trkpt>
      <trkpt lat="50.5098" lon="4.35995">
        <ele>127.8</ele>
        <time>2021-05-06T12:55:55Z</time>
      </trkpt>
      <trkpt lat="50.50952" lon="4.35954">
        <ele>135.9</ele>
        <time>2021-05-06T12:56:07Z</time>
      </trkpt>
      <trkpt lat="50.50942" lon="4.35946">
        <ele>136.1</ele>
      </trkpt>
      <trkpt lat="50.50932" lon="4.35938">
        <ele>136.2</ele>
      </trkpt>
      <trkpt lat="50.50916" lon="4.35921">
        <ele>129.8</ele>
        <time>2021-05-06T12:56:16Z</time>
      </trkpt>
      <trkpt lat="50.50903" lon="4.35902">
        <ele>136</ele>
        <time>2021-05-06T12:56:22Z</time>
      </trkpt>
      <trkpt lat="50.50907" lon="4.35882">
        <ele>130.4</ele>
        <time>2021-05-06T12:56:30Z</time>
      </trkpt>
      <trkpt lat="50.50913" lon="4.35873">
        <ele>131.4</ele>
        <time>2021-05-06T12:56:57Z</time>
      </trkpt>
      <trkpt lat="50.50919" lon="4.35856">
        <ele>131.2</ele>
        <time>2021-05-06T12:57:06Z</time>
      </trkpt>
      <trkpt lat="50.5093" lon="4.3583">
        <ele>132.7</ele>
      </trkpt>
      <trkpt lat="50.50943" lon="4.35846">
        <ele>130.2</ele>
        <time>2021-05-06T12:57:20Z</time>
      </trkpt>
      <trkpt lat="50.50986" lon="4.35898">
        <ele>129.2</ele>
        <time>2021-05-06T12:57:32Z</time>
      </trkpt>
      <trkpt lat="50.51031" lon="4.35959">
        <ele>128.6</ele>
        <time>2021-05-06T12:57:48Z</time>
      </trkpt>
      <trkpt lat="50.51075" lon="4.3602">
        <ele>128</ele>
        <time>2021-05-06T12:58:01Z</time>
      </trkpt>
      <trkpt lat="50.51107" lon="4.36076">
        <ele>127.6</ele>
        <time>2021-05-06T12:58:13Z</time>
      </trkpt>
      <trkpt lat="50.51124" lon="4.36115">
        <ele>127.9</ele>
      </trkpt>
      <trkpt lat="50.51151" lon="4.36137">
        <ele>126.4</ele>
        <time>2021-05-06T12:58:26Z</time>
      </trkpt>
      <trkpt lat="50.51167" lon="4.36137">
        <ele>125.7</ele>
        <time>2021-05-06T12:58:28Z</time>
      </trkpt>
      <trkpt lat="50.51184" lon="4.36159">
        <ele>125.5</ele>
      </trkpt>
      <trkpt lat="50.51197" lon="4.3618">
        <ele>125.3</ele>
        <time>2021-05-06T12:58:35Z</time>
      </trkpt>
      <trkpt lat="50.51195" lon="4.36217">
        <ele>125.3</ele>
        <time>2021-05-06T12:58:38Z</time>
      </trkpt>
      <trkpt lat="50.5119" lon="4.36235">
        <ele>125.4</ele>
      </trkpt>
      <trkpt lat="50.51199" lon="4.36247">
        <ele>125.2</ele>
        <time>2021-05-06T12:58:44Z</time>
      </trkpt>
      <trkpt lat="50.51221" lon="4.36276">
        <ele>124.8</ele>
        <time>2021-05-06T12:58:52Z</time>
      </trkpt>
      <trkpt lat="50.51231" lon="4.36286">
        <ele>124.7</ele>
      </trkpt>
      <trkpt lat="50.51248" lon="4.36289">
        <ele>124.5</ele>
        <time>2021-05-06T12:59:02Z</time>
      </trkpt>
      <trkpt lat="50.51271" lon="4.36294">
        <ele>124.1</ele>
      </trkpt>
      <trkpt lat="50.51291" lon="4.36307">
        <ele>121.8</ele>
        <time>2021-05-06T12:59:19Z</time>
      </trkpt>
      <trkpt lat="50.51324" lon="4.3633">
        <ele>121.2</ele>
        <time>2021-05-06T12:59:31Z</time>
      </trkpt>
      <trkpt lat="50.51348" lon="4.36346">
        <ele>121</ele>
        <time>2021-05-06T12:59:49Z</time>
      </trkpt>
      <trkpt lat="50.51357" lon="4.36356">
        <ele>120.6</ele>
        <time>2021-05-06T12:59:59Z</time>
      </trkpt>
      <trkpt lat="50.51364" lon="4.36329">
        <ele>124.6</ele>
      </trkpt>
      <trkpt lat="50.51373" lon="4.36334">
        <ele>125.3</ele>
        <time>2021-05-06T13:00:07Z</time>
      </trkpt>
      <trkpt lat="50.51383" lon="4.36338">
        <ele>120</ele>
        <time>2021-05-06T13:00:11Z</time>
      </trkpt>
      <trkpt lat="50.51435" lon="4.3636">
        <ele>120.6</ele>
        <time>2021-05-06T13:00:24Z</time>
      </trkpt>
      <trkpt lat="50.51492" lon="4.36379">
        <ele>120.8</ele>
        <time>2021-05-06T13:00:37Z</time>
      </trkpt>
      <trkpt lat="50.51549" lon="4.36416">
        <ele>122.2</ele>
        <time>2021-05-06T13:00:51Z</time>
      </trkpt>
      <trkpt lat="50.51645" lon="4.36479">
        <ele>125</ele>
        <time>2021-05-06T13:01:14Z</time>
      </trkpt>
      <trkpt lat="50.51669" lon="4.36495">
        <ele>125.8</ele>
        <time>2021-05-06T13:01:20Z</time>
      </trkpt>
      <trkpt lat="50.51757" lon="4.36535">
        <ele>128.4</ele>
        <time>2021-05-06T13:01:40Z</time>
      </trkpt>
      <trkpt lat="50.51786" lon="4.36548">
        <ele>129.2</ele>
        <time>2021-05-06T13:01:46Z</time>
      </trkpt>
      <trkpt lat="50.51798" lon="4.36554">
        <ele>144.2</ele>
      </trkpt>
      <trkpt lat="50.51807" lon="4.36567">
        <ele>130</ele>
        <time>2021-05-06T13:01:51Z</time>
      </trkpt>
      <trkpt lat="50.5186" lon="4.36655">
        <ele>145.3</ele>
        <time>2021-05-06T13:02:06Z</time>
      </trkpt>
      <trkpt lat="50.51891" lon="4.36702">
        <ele>145.7</ele>
        <time>2021-05-06T13:02:11Z</time>
      </trkpt>
      <trkpt lat="50.51907" lon="4.36804">
        <ele>135.8</ele>
        <time>2021-05-06T13:02:31Z</time>
      </trkpt>
      <trkpt lat="50.51913" lon="4.36839">
        <ele>145.9</ele>
      </trkpt>
      <trkpt lat="50.51922" lon="4.36842">
        <ele>145.9</ele>
        <time>2021-05-06T13:02:40Z</time>
      </trkpt>
      <trkpt lat="50.5194" lon="4.36842">
        <ele>145.5</ele>
      </trkpt>
      <trkpt lat="50.51954" lon="4.36844">
        <ele>137.8</ele>
        <time>2021-05-06T13:02:49Z</time>
      </trkpt>
      <trkpt lat="50.51974" lon="4.36856">
        <ele>138.2</ele>
        <time>2021-05-06T13:02:54Z</time>
      </trkpt>
      <trkpt lat="50.52003" lon="4.36888">
        <ele>139</ele>
        <time>2021-05-06T13:03:04Z</time>
      </trkpt>
      <trkpt lat="50.52044" lon="4.36983">
        <ele>140.6</ele>
        <time>2021-05-06T13:03:23Z</time>
      </trkpt>
      <trkpt lat="50.52072" lon="4.37052">
        <ele>141.4</ele>
        <time>2021-05-06T13:03:36Z</time>
      </trkpt>
      <trkpt lat="50.52086" lon="4.37086">
        <ele>148</ele>
      </trkpt>
      <trkpt lat="50.52117" lon="4.37118">
        <ele>142.2</ele>
        <time>2021-05-06T13:03:52Z</time>
      </trkpt>
      <trkpt lat="50.52141" lon="4.37139">
        <ele>142.6</ele>
        <time>2021-05-06T13:03:59Z</time>
      </trkpt>
      <trkpt lat="50.52209" lon="4.3719">
        <ele>143.4</ele>
        <time>2021-05-06T13:04:20Z</time>
      </trkpt>
      <trkpt lat="50.52244" lon="4.37216">
        <ele>143.6</ele>
        <time>2021-05-06T13:04:31Z</time>
      </trkpt>
      <trkpt lat="50.52282" lon="4.37247">
        <ele>143.6</ele>
        <time>2021-05-06T13:04:43Z</time>
      </trkpt>
      <trkpt lat="50.5233" lon="4.37284">
        <ele>143.4</ele>
        <time>2021-05-06T13:04:57Z</time>
      </trkpt>
      <trkpt lat="50.52346" lon="4.37284">
        <ele>147.5</ele>
        <time>2021-05-06T13:05:02Z</time>
      </trkpt>
      <trkpt lat="50.52377" lon="4.3722">
        <ele>142.2</ele>
        <time>2021-05-06T13:05:12Z</time>
      </trkpt>
      <trkpt lat="50.52402" lon="4.37181">
        <ele>141.6</ele>
        <time>2021-05-06T13:05:19Z</time>
      </trkpt>
      <trkpt lat="50.52434" lon="4.37137">
        <ele>140.8</ele>
        <time>2021-05-06T13:05:29Z</time>
      </trkpt>
      <trkpt lat="50.52461" lon="4.3709">
        <ele>140</ele>
        <time>2021-05-06T13:05:38Z</time>
      </trkpt>
      <trkpt lat="50.52471" lon="4.37066">
        <ele>141</ele>
      </trkpt>
      <trkpt lat="50.52485" lon="4.37013">
        <ele>139</ele>
        <time>2021-05-06T13:05:50Z</time>
      </trkpt>
      <trkpt lat="50.52499" lon="4.36954">
        <ele>138.2</ele>
        <time>2021-05-06T13:05:59Z</time>
      </trkpt>
      <trkpt lat="50.52506" lon="4.36897">
        <ele>137.2</ele>
        <time>2021-05-06T13:06:07Z</time>
      </trkpt>
      <trkpt lat="50.52516" lon="4.36829">
        <ele>136</ele>
        <time>2021-05-06T13:06:17Z</time>
      </trkpt>
      <trkpt lat="50.52527" lon="4.36801">
        <ele>135.4</ele>
        <time>2021-05-06T13:06:22Z</time>
      </trkpt>
      <trkpt lat="50.52576" lon="4.36732">
        <ele>132.8</ele>
        <time>2021-05-06T13:06:39Z</time>
      </trkpt>
      <trkpt lat="50.52593" lon="4.36705">
        <ele>132.2</ele>
        <time>2021-05-06T13:06:45Z</time>
      </trkpt>
      <trkpt lat="50.52623" lon="4.36664">
        <ele>136</ele>
        <time>2021-05-06T13:06:57Z</time>
      </trkpt>
      <trkpt lat="50.5264" lon="4.36636">
        <ele>135.6</ele>
      </trkpt>
      <trkpt lat="50.52637" lon="4.36624">
        <ele>129.8</ele>
        <time>2021-05-06T13:07:07Z</time>
      </trkpt>
      <trkpt lat="50.52614" lon="4.36585">
        <ele>129.6</ele>
        <time>2021-05-06T13:07:14Z</time>
      </trkpt>
      <trkpt lat="50.526" lon="4.36563">
        <ele>135</ele>
        <time>2021-05-06T13:07:18Z</time>
      </trkpt>
      <trkpt lat="50.52591" lon="4.36537">
        <ele>135</ele>
        <time>2021-05-06T13:07:22Z</time>
      </trkpt>
      <trkpt lat="50.52579" lon="4.36479">
        <ele>128.8</ele>
        <time>2021-05-06T13:07:32Z</time>
      </trkpt>
      <trkpt lat="50.52568" lon="4.36414">
        <ele>128.4</ele>
        <time>2021-05-06T13:07:43Z</time>
      </trkpt>
      <trkpt lat="50.52554" lon="4.36336">
        <ele>130.1</ele>
        <time>2021-05-06T13:07:56Z</time>
      </trkpt>
      <trkpt lat="50.52555" lon="4.36315">
        <ele>129.9</ele>
      </trkpt>
      <trkpt lat="50.52572" lon="4.36297">
        <ele>127.4</ele>
        <time>2021-05-06T13:08:02Z</time>
      </trkpt>
      <trkpt lat="50.52593" lon="4.3628">
        <ele>127.2</ele>
        <time>2021-05-06T13:08:06Z</time>
      </trkpt>
      <trkpt lat="50.52666" lon="4.3624">
        <ele>126.2</ele>
        <time>2021-05-06T13:08:23Z</time>
      </trkpt>
      <trkpt lat="50.52681" lon="4.36213">
        <ele>133.2</ele>
        <time>2021-05-06T13:08:26Z</time>
      </trkpt>
      <trkpt lat="50.52669" lon="4.3616">
        <ele>134</ele>
        <time>2021-05-06T13:08:38Z</time>
      </trkpt>
      <trkpt lat="50.52668" lon="4.36088">
        <ele>134</ele>
        <time>2021-05-06T13:08:50Z</time>
      </trkpt>
      <trkpt lat="50.52671" lon="4.36033">
        <ele>134.1</ele>
        <time>2021-05-06T13:08:57Z</time>
      </trkpt>
      <trkpt lat="50.52679" lon="4.35917">
        <ele>133.3</ele>
        <time>2021-05-06T13:09:14Z</time>
      </trkpt>
      <trkpt lat="50.52684" lon="4.35857">
        <ele>133.4</ele>
        <time>2021-05-06T13:09:23Z</time>
      </trkpt>
      <trkpt lat="50.52691" lon="4.35786">
        <ele>133.6</ele>
        <time>2021-05-06T13:09:34Z</time>
      </trkpt>
      <trkpt lat="50.52696" lon="4.35749">
        <ele>133.7</ele>
        <time>2021-05-06T13:09:39Z</time>
      </trkpt>
      <trkpt lat="50.52706" lon="4.357">
        <ele>133.9</ele>
        <time>2021-05-06T13:09:46Z</time>
      </trkpt>
      <trkpt lat="50.52709" lon="4.35646">
        <ele>133.9</ele>
        <time>2021-05-06T13:09:53Z</time>
      </trkpt>
      <trkpt lat="50.52706" lon="4.35613">
        <ele>133.6</ele>
        <time>2021-05-06T13:09:59Z</time>
      </trkpt>
      <trkpt lat="50.52685" lon="4.35538">
        <ele>133.1</ele>
      </trkpt>
      <trkpt lat="50.52672" lon="4.35517">
        <ele>133</ele>
      </trkpt>
      <trkpt lat="50.52672" lon="4.35503">
        <ele>133</ele>
        <time>2021-05-06T13:10:14Z</time>
      </trkpt>
      <trkpt lat="50.52672" lon="4.35412">
        <ele>127.2</ele>
        <time>2021-05-06T13:10:27Z</time>
      </trkpt>
      <trkpt lat="50.52679" lon="4.35284">
        <ele>127.6</ele>
        <time>2021-05-06T13:10:45Z</time>
      </trkpt>
      <trkpt lat="50.5268" lon="4.35266">
        <ele>133.3</ele>
      </trkpt>
      <trkpt lat="50.52676" lon="4.35256">
        <ele>127.8</ele>
        <time>2021-05-06T13:10:49Z</time>
      </trkpt>
      <trkpt lat="50.52644" lon="4.35159">
        <ele>128.6</ele>
        <time>2021-05-06T13:11:04Z</time>
      </trkpt>
      <trkpt lat="50.52633" lon="4.35125">
        <ele>135.4</ele>
      </trkpt>
      <trkpt lat="50.52632" lon="4.35087">
        <ele>129</ele>
        <time>2021-05-06T13:11:15Z</time>
      </trkpt>
      <trkpt lat="50.52629" lon="4.34971">
        <ele>140.5</ele>
        <time>2021-05-06T13:11:33Z</time>
      </trkpt>
      <trkpt lat="50.52619" lon="4.34839">
        <ele>132.6</ele>
        <time>2021-05-06T13:11:56Z</time>
      </trkpt>
      <trkpt lat="50.52609" lon="4.34746">
        <ele>147.1</ele>
        <time>2021-05-06T13:12:12Z</time>
      </trkpt>
      <trkpt lat="50.52592" lon="4.34664">
        <ele>148.1</ele>
      </trkpt>
      <trkpt lat="50.5259" lon="4.34616">
        <ele>137.4</ele>
        <time>2021-05-06T13:12:35Z</time>
      </trkpt>
      <trkpt lat="50.52585" lon="4.34571">
        <ele>138.4</ele>
        <time>2021-05-06T13:12:43Z</time>
      </trkpt>
      <trkpt lat="50.52581" lon="4.34504">
        <ele>147.1</ele>
      </trkpt>
      <trkpt lat="50.52579" lon="4.34458">
        <ele>147.6</ele>
      </trkpt>
      <trkpt lat="50.52572" lon="4.34433">
        <ele>148.1</ele>
        <time>2021-05-06T13:13:06Z</time>
      </trkpt>
      <trkpt lat="50.52553" lon="4.34337">
        <ele>142.2</ele>
        <time>2021-05-06T13:13:22Z</time>
      </trkpt>
      <trkpt lat="50.52546" lon="4.34266">
        <ele>142.4</ele>
        <time>2021-05-06T13:13:31Z</time>
      </trkpt>
      <trkpt lat="50.52544" lon="4.34156">
        <ele>142.8</ele>
        <time>2021-05-06T13:13:45Z</time>
      </trkpt>
      <trkpt lat="50.52549" lon="4.34101">
        <ele>146.9</ele>
        <time>2021-05-06T13:13:53Z</time>
      </trkpt>
      <trkpt lat="50.52557" lon="4.34001">
        <ele>147</ele>
        <time>2021-05-06T13:14:07Z</time>
      </trkpt>
      <trkpt lat="50.52561" lon="4.33902">
        <ele>149.3</ele>
        <time>2021-05-06T13:14:22Z</time>
      </trkpt>
      <trkpt lat="50.52562" lon="4.33737">
        <ele>144</ele>
        <time>2021-05-06T13:14:48Z</time>
      </trkpt>
      <trkpt lat="50.5256" lon="4.33685">
        <ele>153</ele>
      </trkpt>
      <trkpt lat="50.52566" lon="4.33635">
        <ele>144.6</ele>
        <time>2021-05-06T13:15:02Z</time>
      </trkpt>
      <trkpt lat="50.52571" lon="4.33591">
        <ele>154.1</ele>
      </trkpt>
      <trkpt lat="50.52584" lon="4.33544">
        <ele>145</ele>
        <time>2021-05-06T13:15:14Z</time>
      </trkpt>
      <trkpt lat="50.52597" lon="4.33484">
        <ele>145.4</ele>
        <time>2021-05-06T13:15:21Z</time>
      </trkpt>
      <trkpt lat="50.52614" lon="4.33358">
        <ele>147</ele>
        <time>2021-05-06T13:15:36Z</time>
      </trkpt>
      <trkpt lat="50.5262" lon="4.33329">
        <ele>147.6</ele>
        <time>2021-05-06T13:15:43Z</time>
      </trkpt>
      <trkpt lat="50.52615" lon="4.3333">
        <ele>147.8</ele>
        <time>2021-05-06T13:15:48Z</time>
      </trkpt>
      <trkpt lat="50.52556" lon="4.33383">
        <ele>149.2</ele>
        <time>2021-05-06T13:16:07Z</time>
      </trkpt>
      <trkpt lat="50.52521" lon="4.33421">
        <ele>149.8</ele>
        <time>2021-05-06T13:16:19Z</time>
      </trkpt>
      <trkpt lat="50.52472" lon="4.33478">
        <ele>150.4</ele>
        <time>2021-05-06T13:16:35Z</time>
      </trkpt>
      <trkpt lat="50.52422" lon="4.33534">
        <ele>151</ele>
        <time>2021-05-06T13:16:55Z</time>
      </trkpt>
      <trkpt lat="50.5239" lon="4.33571">
        <ele>154</ele>
        <time>2021-05-06T13:17:07Z</time>
      </trkpt>
      <trkpt lat="50.52397" lon="4.3353">
        <ele>151.4</ele>
        <time>2021-05-06T13:17:14Z</time>
      </trkpt>
      <trkpt lat="50.52402" lon="4.33477">
        <ele>154.4</ele>
      </trkpt>
      <trkpt lat="50.524" lon="4.334">
        <ele>155</ele>
        <time>2021-05-06T13:17:27Z</time>
      </trkpt>
      <trkpt lat="50.52397" lon="4.33308">
        <ele>154.7</ele>
      </trkpt>
      <trkpt lat="50.52404" lon="4.33201">
        <ele>151.8</ele>
        <time>2021-05-06T13:17:52Z</time>
      </trkpt>
      <trkpt lat="50.52411" lon="4.33115">
        <ele>151.8</ele>
        <time>2021-05-06T13:18:03Z</time>
      </trkpt>
      <trkpt lat="50.5241" lon="4.33108">
        <ele>152.6</ele>
      </trkpt>
      <trkpt lat="50.52405" lon="4.33109">
        <ele>151.6</ele>
        <time>2021-05-06T13:18:05Z</time>
      </trkpt>
      <trkpt lat="50.52354" lon="4.3312">
        <ele>151.4</ele>
        <time>2021-05-06T13:18:19Z</time>
      </trkpt>
      <trkpt lat="50.52305" lon="4.33138">
        <ele>151.2</ele>
        <time>2021-05-06T13:18:31Z</time>
      </trkpt>
      <trkpt lat="50.52213" lon="4.33218">
        <ele>150</ele>
        <time>2021-05-06T13:18:51Z</time>
      </trkpt>
      <trkpt lat="50.52159" lon="4.3328">
        <ele>149.2</ele>
        <time>2021-05-06T13:19:03Z</time>
      </trkpt>
      <trkpt lat="50.52103" lon="4.33344">
        <ele>148.4</ele>
        <time>2021-05-06T13:19:16Z</time>
      </trkpt>
      <trkpt lat="50.52092" lon="4.33362">
        <ele>148.4</ele>
        <time>2021-05-06T13:19:20Z</time>
      </trkpt>
      <trkpt lat="50.52067" lon="4.33395">
        <ele>148</ele>
        <time>2021-05-06T13:19:27Z</time>
      </trkpt>
      <trkpt lat="50.51992" lon="4.33494">
        <ele>144.8</ele>
        <time>2021-05-06T13:19:49Z</time>
      </trkpt>
      <trkpt lat="50.51958" lon="4.33542">
        <ele>144.2</ele>
        <time>2021-05-06T13:19:59Z</time>
      </trkpt>
      <trkpt lat="50.51925" lon="4.33585">
        <ele>145.4</ele>
        <time>2021-05-06T13:20:10Z</time>
      </trkpt>
      <trkpt lat="50.51889" lon="4.33635">
        <ele>144.4</ele>
        <time>2021-05-06T13:20:21Z</time>
      </trkpt>
      <trkpt lat="50.51864" lon="4.33669">
        <ele>143.8</ele>
        <time>2021-05-06T13:20:29Z</time>
      </trkpt>
      <trkpt lat="50.51837" lon="4.33708">
        <ele>143.2</ele>
        <time>2021-05-06T13:20:36Z</time>
      </trkpt>
      <trkpt lat="50.51792" lon="4.33763">
        <ele>142.2</ele>
        <time>2021-05-06T13:20:47Z</time>
      </trkpt>
      <trkpt lat="50.51766" lon="4.33785">
        <ele>141.6</ele>
        <time>2021-05-06T13:20:54Z</time>
      </trkpt>
      <trkpt lat="50.51683" lon="4.33875">
        <ele>139.4</ele>
        <time>2021-05-06T13:21:13Z</time>
      </trkpt>
      <trkpt lat="50.51654" lon="4.33918">
        <ele>134.4</ele>
      </trkpt>
      <trkpt lat="50.51643" lon="4.33945">
        <ele>137.8</ele>
        <time>2021-05-06T13:21:22Z</time>
      </trkpt>
      <trkpt lat="50.51647" lon="4.34001">
        <ele>136.8</ele>
        <time>2021-05-06T13:21:27Z</time>
      </trkpt>
      <trkpt lat="50.51644" lon="4.34023">
        <ele>136.4</ele>
        <time>2021-05-06T13:21:29Z</time>
      </trkpt>
      <trkpt lat="50.51629" lon="4.34043">
        <ele>131.6</ele>
      </trkpt>
      <trkpt lat="50.51612" lon="4.34057">
        <ele>135.2</ele>
        <time>2021-05-06T13:21:35Z</time>
      </trkpt>
      <trkpt lat="50.51588" lon="4.34098">
        <ele>134.2</ele>
        <time>2021-05-06T13:21:41Z</time>
      </trkpt>
      <trkpt lat="50.51579" lon="4.3411">
        <ele>132</ele>
      </trkpt>
      <trkpt lat="50.51581" lon="4.34126">
        <ele>132.6</ele>
        <time>2021-05-06T13:21:44Z</time>
      </trkpt>
      <trkpt lat="50.51582" lon="4.34192">
        <ele>132.2</ele>
        <time>2021-05-06T13:21:55Z</time>
      </trkpt>
      <trkpt lat="50.51585" lon="4.34211">
        <ele>136.1</ele>
      </trkpt>
      <trkpt lat="50.51589" lon="4.34224">
        <ele>136.7</ele>
        <time>2021-05-06T13:22:18Z</time>
      </trkpt>
      <trkpt lat="50.51584" lon="4.34239">
        <ele>137.5</ele>
        <time>2021-05-06T13:22:58Z</time>
      </trkpt>
      <trkpt lat="50.51585" lon="4.34295">
        <ele>140.7</ele>
        <time>2021-05-06T13:23:07Z</time>
      </trkpt>
      <trkpt lat="50.51576" lon="4.34338">
        <ele>142.9</ele>
        <time>2021-05-06T13:23:21Z</time>
      </trkpt>
      <trkpt lat="50.51565" lon="4.34385">
        <ele>129.4</ele>
        <time>2021-05-06T13:23:32Z</time>
      </trkpt>
      <trkpt lat="50.51565" lon="4.34385">
        <ele>131</ele>
        <time>2021-05-06T13:23:59Z</time>
      </trkpt>
      <trkpt lat="50.51565" lon="4.34386">
        <ele>132.2</ele>
        <time>2021-05-06T13:24:21Z</time>
      </trkpt>
      <trkpt lat="50.51565" lon="4.34386">
        <ele>132.6</ele>
        <time>2021-05-06T13:24:34Z</time>
      </trkpt>
      <trkpt lat="50.51566" lon="4.34388">
        <ele>133.8</ele>
        <time>2021-05-06T13:25:01Z</time>
      </trkpt>
      <trkpt lat="50.51566" lon="4.34389">
        <ele>135</ele>
        <time>2021-05-06T13:25:31Z</time>
      </trkpt>
      <trkpt lat="50.51566" lon="4.34389">
        <ele>136.4</ele>
        <time>2021-05-06T13:26:16Z</time>
      </trkpt>
      <trkpt lat="50.51566" lon="4.34389">
        <ele>137.2</ele>
        <time>2021-05-06T13:26:52Z</time>
      </trkpt>
      <trkpt lat="50.51566" lon="4.34389">
        <ele>137.6</ele>
        <time>2021-05-06T13:27:30Z</time>
      </trkpt>
      <trkpt lat="50.51566" lon="4.34391">
        <ele>138.4</ele>
        <time>2021-05-06T13:28:15Z</time>
      </trkpt>
      <trkpt lat="50.51563" lon="4.3439">
        <ele>143.3</ele>
      </trkpt>
      <trkpt lat="50.51512" lon="4.34402">
        <ele>140</ele>
        <time>2021-05-06T13:29:34Z</time>
      </trkpt>
      <trkpt lat="50.51476" lon="4.34424">
        <ele>139.8</ele>
        <time>2021-05-06T13:29:45Z</time>
      </trkpt>
      <trkpt lat="50.51439" lon="4.34456">
        <ele>139.6</ele>
        <time>2021-05-06T13:29:58Z</time>
      </trkpt>
      <trkpt lat="50.5143" lon="4.34462">
        <ele>140.7</ele>
      </trkpt>
      <trkpt lat="50.51425" lon="4.3446">
        <ele>140.4</ele>
      </trkpt>
      <trkpt lat="50.51414" lon="4.34442">
        <ele>139.4</ele>
        <time>2021-05-06T13:30:11Z</time>
      </trkpt>
      <trkpt lat="50.51401" lon="4.34405">
        <ele>139.1</ele>
        <time>2021-05-06T13:30:19Z</time>
      </trkpt>
      <trkpt lat="50.51391" lon="4.34399">
        <ele>138.5</ele>
      </trkpt>
      <trkpt lat="50.51382" lon="4.34399">
        <ele>139</ele>
        <time>2021-05-06T13:30:26Z</time>
      </trkpt>
      <trkpt lat="50.51371" lon="4.34398">
        <ele>138.8</ele>
        <time>2021-05-06T13:30:31Z</time>
      </trkpt>
      <trkpt lat="50.51382" lon="4.34305">
        <ele>137.8</ele>
        <time>2021-05-06T13:30:47Z</time>
      </trkpt>
      <trkpt lat="50.51382" lon="4.34289">
        <ele>137.6</ele>
        <time>2021-05-06T13:30:49Z</time>
      </trkpt>
      <trkpt lat="50.51379" lon="4.3425">
        <ele>136.8</ele>
        <time>2021-05-06T13:30:56Z</time>
      </trkpt>
      <trkpt lat="50.51356" lon="4.34242">
        <ele>135.6</ele>
        <time>2021-05-06T13:31:07Z</time>
      </trkpt>
      <trkpt lat="50.51336" lon="4.34216">
        <ele>133.8</ele>
        <time>2021-05-06T13:31:18Z</time>
      </trkpt>
      <trkpt lat="50.5132" lon="4.34191">
        <ele>132</ele>
        <time>2021-05-06T13:31:26Z</time>
      </trkpt>
      <trkpt lat="50.51307" lon="4.34176">
        <ele>130.6</ele>
        <time>2021-05-06T13:31:32Z</time>
      </trkpt>
      <trkpt lat="50.51294" lon="4.34186">
        <ele>130</ele>
        <time>2021-05-06T13:31:36Z</time>
      </trkpt>
      <trkpt lat="50.51262" lon="4.34208">
        <ele>125.4</ele>
        <time>2021-05-06T13:31:43Z</time>
      </trkpt>
      <trkpt lat="50.51253" lon="4.34209">
        <ele>124.7</ele>
        <time>2021-05-06T13:31:47Z</time>
      </trkpt>
      <trkpt lat="50.51248" lon="4.3417">
        <ele>124</ele>
      </trkpt>
      <trkpt lat="50.51249" lon="4.34139">
        <ele>124</ele>
        <time>2021-05-06T13:31:55Z</time>
      </trkpt>
      <trkpt lat="50.51252" lon="4.34095">
        <ele>124.1</ele>
        <time>2021-05-06T13:32:00Z</time>
      </trkpt>
      <trkpt lat="50.51264" lon="4.34001">
        <ele>124.5</ele>
        <time>2021-05-06T13:32:14Z</time>
      </trkpt>
      <trkpt lat="50.51276" lon="4.33908">
        <ele>124</ele>
        <time>2021-05-06T13:32:26Z</time>
      </trkpt>
      <trkpt lat="50.51292" lon="4.338">
        <ele>123.8</ele>
        <time>2021-05-06T13:32:39Z</time>
      </trkpt>
      <trkpt lat="50.51304" lon="4.33718">
        <ele>131.2</ele>
        <time>2021-05-06T13:32:49Z</time>
      </trkpt>
      <trkpt lat="50.51309" lon="4.33682">
        <ele>131.8</ele>
        <time>2021-05-06T13:32:53Z</time>
      </trkpt>
      <trkpt lat="50.51306" lon="4.33639">
        <ele>132.6</ele>
        <time>2021-05-06T13:32:58Z</time>
      </trkpt>
      <trkpt lat="50.51293" lon="4.33552">
        <ele>133.7</ele>
        <time>2021-05-06T13:33:09Z</time>
      </trkpt>
      <trkpt lat="50.51267" lon="4.33444">
        <ele>124.2</ele>
        <time>2021-05-06T13:33:24Z</time>
      </trkpt>
      <trkpt lat="50.5126" lon="4.33414">
        <ele>124.6</ele>
        <time>2021-05-06T13:33:29Z</time>
      </trkpt>
      <trkpt lat="50.51228" lon="4.33289">
        <ele>125.8</ele>
        <time>2021-05-06T13:33:49Z</time>
      </trkpt>
      <trkpt lat="50.51198" lon="4.33175">
        <ele>135.6</ele>
        <time>2021-05-06T13:34:03Z</time>
      </trkpt>
      <trkpt lat="50.51206" lon="4.33163">
        <ele>127.2</ele>
        <time>2021-05-06T13:34:08Z</time>
      </trkpt>
      <trkpt lat="50.51216" lon="4.33144">
        <ele>137</ele>
      </trkpt>
      <trkpt lat="50.51225" lon="4.33134">
        <ele>127.6</ele>
        <time>2021-05-06T13:34:14Z</time>
      </trkpt>
      <trkpt lat="50.51264" lon="4.33081">
        <ele>128.6</ele>
        <time>2021-05-06T13:34:25Z</time>
      </trkpt>
      <trkpt lat="50.51338" lon="4.32989">
        <ele>131.2</ele>
        <time>2021-05-06T13:34:47Z</time>
      </trkpt>
      <trkpt lat="50.51368" lon="4.32946">
        <ele>133</ele>
        <time>2021-05-06T13:34:58Z</time>
      </trkpt>
      <trkpt lat="50.51399" lon="4.32886">
        <ele>145.6</ele>
      </trkpt>
      <trkpt lat="50.5143" lon="4.32848">
        <ele>135</ele>
        <time>2021-05-06T13:35:15Z</time>
      </trkpt>
      <trkpt lat="50.51452" lon="4.32825">
        <ele>146.1</ele>
      </trkpt>
      <trkpt lat="50.51457" lon="4.32811">
        <ele>146.3</ele>
        <time>2021-05-06T13:35:22Z</time>
      </trkpt>
      <trkpt lat="50.51458" lon="4.32794">
        <ele>146.5</ele>
      </trkpt>
      <trkpt lat="50.51453" lon="4.32757">
        <ele>146.9</ele>
        <time>2021-05-06T13:35:25Z</time>
      </trkpt>
      <trkpt lat="50.51416" lon="4.32597">
        <ele>138.6</ele>
        <time>2021-05-06T13:35:48Z</time>
      </trkpt>
      <trkpt lat="50.51394" lon="4.32459">
        <ele>140.4</ele>
        <time>2021-05-06T13:36:05Z</time>
      </trkpt>
      <trkpt lat="50.51388" lon="4.3241">
        <ele>141.2</ele>
        <time>2021-05-06T13:36:13Z</time>
      </trkpt>
      <trkpt lat="50.51382" lon="4.32368">
        <ele>141.8</ele>
        <time>2021-05-06T13:36:20Z</time>
      </trkpt>
      <trkpt lat="50.51377" lon="4.32351">
        <ele>149.1</ele>
      </trkpt>
      <trkpt lat="50.5137" lon="4.32339">
        <ele>149</ele>
      </trkpt>
      <trkpt lat="50.51387" lon="4.32336">
        <ele>142</ele>
        <time>2021-05-06T13:36:27Z</time>
      </trkpt>
      <trkpt lat="50.51429" lon="4.32327">
        <ele>141.6</ele>
        <time>2021-05-06T13:36:36Z</time>
      </trkpt>
      <trkpt lat="50.51446" lon="4.32329">
        <ele>141.8</ele>
        <time>2021-05-06T13:36:39Z</time>
      </trkpt>
      <trkpt lat="50.51493" lon="4.32351">
        <ele>140.8</ele>
        <time>2021-05-06T13:36:48Z</time>
      </trkpt>
      <trkpt lat="50.51544" lon="4.32373">
        <ele>145.4</ele>
        <time>2021-05-06T13:36:57Z</time>
      </trkpt>
      <trkpt lat="50.51578" lon="4.32388">
        <ele>144.2</ele>
        <time>2021-05-06T13:37:03Z</time>
      </trkpt>
      <trkpt lat="50.51625" lon="4.32409">
        <ele>137.6</ele>
        <time>2021-05-06T13:37:12Z</time>
      </trkpt>
      <trkpt lat="50.51654" lon="4.32422">
        <ele>136.8</ele>
        <time>2021-05-06T13:37:18Z</time>
      </trkpt>
      <trkpt lat="50.51671" lon="4.32425">
        <ele>136.6</ele>
        <time>2021-05-06T13:37:21Z</time>
      </trkpt>
      <trkpt lat="50.51733" lon="4.32418">
        <ele>135.6</ele>
        <time>2021-05-06T13:37:31Z</time>
      </trkpt>
      <trkpt lat="50.51801" lon="4.32406">
        <ele>134.8</ele>
        <time>2021-05-06T13:37:43Z</time>
      </trkpt>
      <trkpt lat="50.51838" lon="4.32395">
        <ele>134.2</ele>
        <time>2021-05-06T13:37:50Z</time>
      </trkpt>
      <trkpt lat="50.5192" lon="4.32395">
        <ele>144.7</ele>
        <time>2021-05-06T13:38:06Z</time>
      </trkpt>
      <trkpt lat="50.51968" lon="4.32357">
        <ele>134.4</ele>
        <time>2021-05-06T13:38:18Z</time>
      </trkpt>
      <trkpt lat="50.51991" lon="4.32349">
        <ele>134.6</ele>
        <time>2021-05-06T13:38:26Z</time>
      </trkpt>
      <trkpt lat="50.5201" lon="4.32357">
        <ele>135.6</ele>
        <time>2021-05-06T13:38:35Z</time>
      </trkpt>
      <trkpt lat="50.52032" lon="4.32357">
        <ele>136.4</ele>
        <time>2021-05-06T13:38:44Z</time>
      </trkpt>
      <trkpt lat="50.52076" lon="4.32359">
        <ele>138.2</ele>
        <time>2021-05-06T13:38:59Z</time>
      </trkpt>
      <trkpt lat="50.52105" lon="4.32364">
        <ele>139.6</ele>
        <time>2021-05-06T13:39:08Z</time>
      </trkpt>
      <trkpt lat="50.5216" lon="4.32372">
        <ele>151</ele>
        <time>2021-05-06T13:39:24Z</time>
      </trkpt>
      <trkpt lat="50.52199" lon="4.32382">
        <ele>142.8</ele>
        <time>2021-05-06T13:39:34Z</time>
      </trkpt>
      <trkpt lat="50.5223" lon="4.324">
        <ele>143.6</ele>
        <time>2021-05-06T13:39:42Z</time>
      </trkpt>
      <trkpt lat="50.52273" lon="4.32436">
        <ele>145</ele>
        <time>2021-05-06T13:39:54Z</time>
      </trkpt>
      <trkpt lat="50.52307" lon="4.32469">
        <ele>153.1</ele>
      </trkpt>
      <trkpt lat="50.52339" lon="4.32507">
        <ele>154.2</ele>
        <time>2021-05-06T13:40:14Z</time>
      </trkpt>
      <trkpt lat="50.52363" lon="4.32534">
        <ele>147.4</ele>
        <time>2021-05-06T13:40:22Z</time>
      </trkpt>
      <trkpt lat="50.52375" lon="4.32557">
        <ele>155.2</ele>
      </trkpt>
      <trkpt lat="50.52378" lon="4.3257">
        <ele>148.2</ele>
        <time>2021-05-06T13:40:29Z</time>
      </trkpt>
      <trkpt lat="50.5239" lon="4.32675">
        <ele>149.8</ele>
        <time>2021-05-06T13:40:48Z</time>
      </trkpt>
      <trkpt lat="50.52402" lon="4.32763">
        <ele>150.2</ele>
        <time>2021-05-06T13:41:02Z</time>
      </trkpt>
      <trkpt lat="50.5243" lon="4.32918">
        <ele>150.4</ele>
        <time>2021-05-06T13:41:25Z</time>
      </trkpt>
      <trkpt lat="50.52434" lon="4.3297">
        <ele>150.2</ele>
        <time>2021-05-06T13:41:36Z</time>
      </trkpt>
      <trkpt lat="50.52436" lon="4.32993">
        <ele>151.5</ele>
      </trkpt>
      <trkpt lat="50.52446" lon="4.32972">
        <ele>150.4</ele>
        <time>2021-05-06T13:41:42Z</time>
      </trkpt>
      <trkpt lat="50.52464" lon="4.3294">
        <ele>150.4</ele>
        <time>2021-05-06T13:41:48Z</time>
      </trkpt>
      <trkpt lat="50.52505" lon="4.32872">
        <ele>150.6</ele>
        <time>2021-05-06T13:42:01Z</time>
      </trkpt>
      <trkpt lat="50.52548" lon="4.32804">
        <ele>151.2</ele>
        <time>2021-05-06T13:42:17Z</time>
      </trkpt>
      <trkpt lat="50.52565" lon="4.32781">
        <ele>151.4</ele>
        <time>2021-05-06T13:42:23Z</time>
      </trkpt>
      <trkpt lat="50.52606" lon="4.32721">
        <ele>157.6</ele>
        <time>2021-05-06T13:42:39Z</time>
      </trkpt>
      <trkpt lat="50.52614" lon="4.32722">
        <ele>152.4</ele>
        <time>2021-05-06T13:42:42Z</time>
      </trkpt>
      <trkpt lat="50.52654" lon="4.32785">
        <ele>153.4</ele>
        <time>2021-05-06T13:42:58Z</time>
      </trkpt>
      <trkpt lat="50.52682" lon="4.32826">
        <ele>154</ele>
        <time>2021-05-06T13:43:08Z</time>
      </trkpt>
      <trkpt lat="50.52713" lon="4.3287">
        <ele>154.4</ele>
        <time>2021-05-06T13:43:18Z</time>
      </trkpt>
      <trkpt lat="50.52748" lon="4.32924">
        <ele>155</ele>
        <time>2021-05-06T13:43:32Z</time>
      </trkpt>
      <trkpt lat="50.52779" lon="4.32965">
        <ele>155.2</ele>
        <time>2021-05-06T13:43:43Z</time>
      </trkpt>
      <trkpt lat="50.52837" lon="4.33051">
        <ele>155.8</ele>
        <time>2021-05-06T13:44:03Z</time>
      </trkpt>
      <trkpt lat="50.52861" lon="4.33089">
        <ele>154.7</ele>
      </trkpt>
      <trkpt lat="50.52874" lon="4.33109">
        <ele>154.4</ele>
      </trkpt>
      <trkpt lat="50.52889" lon="4.33122">
        <ele>155</ele>
        <time>2021-05-06T13:44:15Z</time>
      </trkpt>
      <trkpt lat="50.52903" lon="4.3313">
        <ele>153.2</ele>
      </trkpt>
      <trkpt lat="50.52929" lon="4.33133">
        <ele>152.3</ele>
      </trkpt>
      <trkpt lat="50.52966" lon="4.33129">
        <ele>154.2</ele>
        <time>2021-05-06T13:44:29Z</time>
      </trkpt>
      <trkpt lat="50.53012" lon="4.33112">
        <ele>153.8</ele>
        <time>2021-05-06T13:44:37Z</time>
      </trkpt>
      <trkpt lat="50.53086" lon="4.33073">
        <ele>153</ele>
        <time>2021-05-06T13:44:52Z</time>
      </trkpt>
      <trkpt lat="50.5322" lon="4.33001">
        <ele>153</ele>
        <time>2021-05-06T13:45:18Z</time>
      </trkpt>
      <trkpt lat="50.53254" lon="4.32989">
        <ele>153.4</ele>
        <time>2021-05-06T13:45:25Z</time>
      </trkpt>
      <trkpt lat="50.5328" lon="4.3298">
        <ele>157</ele>
      </trkpt>
      <trkpt lat="50.53291" lon="4.32976">
        <ele>156.6</ele>
      </trkpt>
      <trkpt lat="50.53299" lon="4.32969">
        <ele>153.4</ele>
        <time>2021-05-06T13:45:35Z</time>
      </trkpt>
      <trkpt lat="50.5332" lon="4.3292">
        <ele>153</ele>
        <time>2021-05-06T13:45:42Z</time>
      </trkpt>
      <trkpt lat="50.53404" lon="4.32737">
        <ele>151.4</ele>
        <time>2021-05-06T13:46:06Z</time>
      </trkpt>
      <trkpt lat="50.53425" lon="4.32713">
        <ele>151.2</ele>
        <time>2021-05-06T13:46:11Z</time>
      </trkpt>
      <trkpt lat="50.53441" lon="4.32704">
        <ele>149.9</ele>
      </trkpt>
      <trkpt lat="50.53449" lon="4.32707">
        <ele>151</ele>
        <time>2021-05-06T13:46:16Z</time>
      </trkpt>
      <trkpt lat="50.53501" lon="4.32736">
        <ele>149.2</ele>
      </trkpt>
      <trkpt lat="50.53554" lon="4.32754">
        <ele>149</ele>
        <time>2021-05-06T13:46:34Z</time>
      </trkpt>
      <trkpt lat="50.53604" lon="4.32759">
        <ele>148.7</ele>
      </trkpt>
      <trkpt lat="50.53654" lon="4.32762">
        <ele>148.3</ele>
        <time>2021-05-06T13:46:51Z</time>
      </trkpt>
      <trkpt lat="50.53682" lon="4.3276">
        <ele>147.9</ele>
      </trkpt>
      <trkpt lat="50.53686" lon="4.32784">
        <ele>148.2</ele>
        <time>2021-05-06T13:46:58Z</time>
      </trkpt>
      <trkpt lat="50.53698" lon="4.32859">
        <ele>147.4</ele>
        <time>2021-05-06T13:47:07Z</time>
      </trkpt>
      <trkpt lat="50.537" lon="4.32905">
        <ele>149.5</ele>
      </trkpt>
      <trkpt lat="50.537" lon="4.32952">
        <ele>147.2</ele>
        <time>2021-05-06T13:47:18Z</time>
      </trkpt>
      <trkpt lat="50.53695" lon="4.32997">
        <ele>147.2</ele>
        <time>2021-05-06T13:47:24Z</time>
      </trkpt>
      <trkpt lat="50.53683" lon="4.33074">
        <ele>147</ele>
        <time>2021-05-06T13:47:37Z</time>
      </trkpt>
      <trkpt lat="50.53671" lon="4.33172">
        <ele>147.4</ele>
        <time>2021-05-06T13:47:50Z</time>
      </trkpt>
      <trkpt lat="50.53657" lon="4.3328">
        <ele>147.6</ele>
        <time>2021-05-06T13:48:04Z</time>
      </trkpt>
      <trkpt lat="50.53646" lon="4.33372">
        <ele>148.2</ele>
        <time>2021-05-06T13:48:17Z</time>
      </trkpt>
      <trkpt lat="50.53631" lon="4.33492">
        <ele>157.9</ele>
        <time>2021-05-06T13:48:30Z</time>
      </trkpt>
      <trkpt lat="50.53649" lon="4.3353">
        <ele>150.6</ele>
        <time>2021-05-06T13:48:49Z</time>
      </trkpt>
      <trkpt lat="50.53663" lon="4.33608">
        <ele>151.8</ele>
        <time>2021-05-06T13:49:03Z</time>
      </trkpt>
      <trkpt lat="50.53668" lon="4.33688">
        <ele>152.6</ele>
        <time>2021-05-06T13:49:15Z</time>
      </trkpt>
      <trkpt lat="50.53667" lon="4.33793">
        <ele>155.5</ele>
      </trkpt>
      <trkpt lat="50.53684" lon="4.33881">
        <ele>152.6</ele>
        <time>2021-05-06T13:49:35Z</time>
      </trkpt>
      <trkpt lat="50.53703" lon="4.33992">
        <ele>155</ele>
        <time>2021-05-06T13:49:47Z</time>
      </trkpt>
      <trkpt lat="50.53747" lon="4.3419">
        <ele>151.8</ele>
        <time>2021-05-06T13:50:10Z</time>
      </trkpt>
      <trkpt lat="50.53771" lon="4.34292">
        <ele>151.2</ele>
        <time>2021-05-06T13:50:23Z</time>
      </trkpt>
      <trkpt lat="50.53802" lon="4.34468">
        <ele>150.4</ele>
        <time>2021-05-06T13:50:44Z</time>
      </trkpt>
      <trkpt lat="50.53822" lon="4.3459">
        <ele>150</ele>
        <time>2021-05-06T13:50:59Z</time>
      </trkpt>
      <trkpt lat="50.53829" lon="4.34726">
        <ele>149.6</ele>
        <time>2021-05-06T13:51:15Z</time>
      </trkpt>
      <trkpt lat="50.5384" lon="4.34892">
        <ele>149.2</ele>
        <time>2021-05-06T13:51:36Z</time>
      </trkpt>
      <trkpt lat="50.53862" lon="4.35015">
        <ele>149.4</ele>
        <time>2021-05-06T13:51:51Z</time>
      </trkpt>
      <trkpt lat="50.53898" lon="4.35131">
        <ele>149.4</ele>
        <time>2021-05-06T13:52:06Z</time>
      </trkpt>
      <trkpt lat="50.53929" lon="4.35227">
        <ele>150.9</ele>
        <time>2021-05-06T13:52:19Z</time>
      </trkpt>
      <trkpt lat="50.53971" lon="4.35383">
        <ele>149.3</ele>
        <time>2021-05-06T13:52:40Z</time>
      </trkpt>
      <trkpt lat="50.53996" lon="4.35471">
        <ele>150</ele>
        <time>2021-05-06T13:52:52Z</time>
      </trkpt>
      <trkpt lat="50.54021" lon="4.35534">
        <ele>149.6</ele>
        <time>2021-05-06T13:53:01Z</time>
      </trkpt>
      <trkpt lat="50.54035" lon="4.35568">
        <ele>148.7</ele>
      </trkpt>
      <trkpt lat="50.54052" lon="4.35676">
        <ele>149.2</ele>
        <time>2021-05-06T13:53:19Z</time>
      </trkpt>
      <trkpt lat="50.5406" lon="4.35724">
        <ele>148.6</ele>
        <time>2021-05-06T13:53:26Z</time>
      </trkpt>
      <trkpt lat="50.54072" lon="4.35788">
        <ele>147.4</ele>
        <time>2021-05-06T13:53:35Z</time>
      </trkpt>
      <trkpt lat="50.54082" lon="4.35828">
        <ele>146.6</ele>
        <time>2021-05-06T13:53:41Z</time>
      </trkpt>
      <trkpt lat="50.54094" lon="4.3588">
        <ele>146</ele>
        <time>2021-05-06T13:53:56Z</time>
      </trkpt>
      <trkpt lat="50.54094" lon="4.35884">
        <ele>144.8</ele>
        <time>2021-05-06T13:54:19Z</time>
      </trkpt>
      <trkpt lat="50.54095" lon="4.35894">
        <ele>145.9</ele>
      </trkpt>
      <trkpt lat="50.54088" lon="4.35894">
        <ele>145</ele>
        <time>2021-05-06T13:54:23Z</time>
      </trkpt>
      <trkpt lat="50.53987" lon="4.35886">
        <ele>144.4</ele>
        <time>2021-05-06T13:54:42Z</time>
      </trkpt>
      <trkpt lat="50.5391" lon="4.35879">
        <ele>144.2</ele>
        <time>2021-05-06T13:54:57Z</time>
      </trkpt>
      <trkpt lat="50.53803" lon="4.35877">
        <ele>143.8</ele>
        <time>2021-05-06T13:55:18Z</time>
      </trkpt>
      <trkpt lat="50.53786" lon="4.35879">
        <ele>143.6</ele>
      </trkpt>
      <trkpt lat="50.53785" lon="4.35886">
        <ele>143.8</ele>
        <time>2021-05-06T13:55:22Z</time>
      </trkpt>
      <trkpt lat="50.53764" lon="4.35957">
        <ele>143.6</ele>
        <time>2021-05-06T13:55:32Z</time>
      </trkpt>
      <trkpt lat="50.53731" lon="4.36045">
        <ele>143.8</ele>
        <time>2021-05-06T13:55:45Z</time>
      </trkpt>
      <trkpt lat="50.53693" lon="4.36133">
        <ele>144.2</ele>
        <time>2021-05-06T13:56:00Z</time>
      </trkpt>
      <trkpt lat="50.53661" lon="4.3621">
        <ele>144.6</ele>
        <time>2021-05-06T13:56:13Z</time>
      </trkpt>
      <trkpt lat="50.53628" lon="4.36298">
        <ele>145</ele>
        <time>2021-05-06T13:56:28Z</time>
      </trkpt>
      <trkpt lat="50.53617" lon="4.36319">
        <ele>142.5</ele>
      </trkpt>
      <trkpt lat="50.53608" lon="4.36326">
        <ele>145</ele>
        <time>2021-05-06T13:56:33Z</time>
      </trkpt>
      <trkpt lat="50.53595" lon="4.36329">
        <ele>145</ele>
        <time>2021-05-06T13:56:36Z</time>
      </trkpt>
      <trkpt lat="50.53553" lon="4.3634">
        <ele>144</ele>
        <time>2021-05-06T13:56:51Z</time>
      </trkpt>
      <trkpt lat="50.53511" lon="4.36355">
        <ele>143</ele>
        <time>2021-05-06T13:56:59Z</time>
      </trkpt>
      <trkpt lat="50.53453" lon="4.36372">
        <ele>140.6</ele>
        <time>2021-05-06T13:57:12Z</time>
      </trkpt>
      <trkpt lat="50.53438" lon="4.36362">
        <ele>142</ele>
        <time>2021-05-06T13:57:17Z</time>
      </trkpt>
      <trkpt lat="50.53375" lon="4.36285">
        <ele>142.8</ele>
        <time>2021-05-06T13:57:36Z</time>
      </trkpt>
      <trkpt lat="50.53327" lon="4.36222">
        <ele>143.2</ele>
        <time>2021-05-06T13:57:51Z</time>
      </trkpt>
      <trkpt lat="50.53297" lon="4.36162">
        <ele>143.6</ele>
        <time>2021-05-06T13:58:04Z</time>
      </trkpt>
      <trkpt lat="50.53289" lon="4.36139">
        <ele>144.1</ele>
        <time>2021-05-06T13:58:23Z</time>
      </trkpt>
      <trkpt lat="50.53284" lon="4.36133">
        <ele>144</ele>
        <time>2021-05-06T13:59:00Z</time>
      </trkpt>
      <trkpt lat="50.53277" lon="4.3612">
        <ele>143.8</ele>
      </trkpt>
      <trkpt lat="50.53272" lon="4.36129">
        <ele>143.6</ele>
        <time>2021-05-06T13:59:04Z</time>
      </trkpt>
      <trkpt lat="50.53212" lon="4.36278">
        <ele>142.6</ele>
        <time>2021-05-06T13:59:23Z</time>
      </trkpt>
      <trkpt lat="50.53183" lon="4.36338">
        <ele>142.9</ele>
        <time>2021-05-06T13:59:32Z</time>
      </trkpt>
      <trkpt lat="50.53138" lon="4.3641">
        <ele>140.8</ele>
        <time>2021-05-06T13:59:45Z</time>
      </trkpt>
      <trkpt lat="50.53116" lon="4.36451">
        <ele>139.2</ele>
        <time>2021-05-06T13:59:54Z</time>
      </trkpt>
      <trkpt lat="50.53095" lon="4.36492">
        <ele>137</ele>
        <time>2021-05-06T14:00:04Z</time>
      </trkpt>
      <trkpt lat="50.53069" lon="4.36549">
        <ele>135</ele>
        <time>2021-05-06T14:00:17Z</time>
      </trkpt>
      <trkpt lat="50.53056" lon="4.36582">
        <ele>134</ele>
        <time>2021-05-06T14:00:26Z</time>
      </trkpt>
      <trkpt lat="50.53105" lon="4.36628">
        <ele>133.4</ele>
        <time>2021-05-06T14:00:38Z</time>
      </trkpt>
      <trkpt lat="50.53125" lon="4.36647">
        <ele>134.6</ele>
      </trkpt>
      <trkpt lat="50.5314" lon="4.36672">
        <ele>133.4</ele>
        <time>2021-05-06T14:00:46Z</time>
      </trkpt>
      <trkpt lat="50.5317" lon="4.36739">
        <ele>132.6</ele>
        <time>2021-05-06T14:00:56Z</time>
      </trkpt>
      <trkpt lat="50.5319" lon="4.36751">
        <ele>133.2</ele>
        <time>2021-05-06T14:01:00Z</time>
      </trkpt>
      <trkpt lat="50.53217" lon="4.3675">
        <ele>133</ele>
        <time>2021-05-06T14:01:05Z</time>
      </trkpt>
      <trkpt lat="50.53233" lon="4.36741">
        <ele>133</ele>
        <time>2021-05-06T14:01:08Z</time>
      </trkpt>
      <trkpt lat="50.53261" lon="4.36708">
        <ele>132.8</ele>
        <time>2021-05-06T14:01:15Z</time>
      </trkpt>
      <trkpt lat="50.53302" lon="4.36663">
        <ele>132.8</ele>
        <time>2021-05-06T14:01:26Z</time>
      </trkpt>
      <trkpt lat="50.53332" lon="4.36646">
        <ele>133</ele>
        <time>2021-05-06T14:01:34Z</time>
      </trkpt>
      <trkpt lat="50.53371" lon="4.36637">
        <ele>135.3</ele>
      </trkpt>
      <trkpt lat="50.53408" lon="4.36648">
        <ele>133.6</ele>
        <time>2021-05-06T14:01:53Z</time>
      </trkpt>
      <trkpt lat="50.53439" lon="4.3666">
        <ele>135.2</ele>
        <time>2021-05-06T14:02:00Z</time>
      </trkpt>
      <trkpt lat="50.53428" lon="4.36697">
        <ele>135.1</ele>
        <time>2021-05-06T14:02:06Z</time>
      </trkpt>
      <trkpt lat="50.53416" lon="4.3674">
        <ele>133.2</ele>
        <time>2021-05-06T14:02:12Z</time>
      </trkpt>
      <trkpt lat="50.53402" lon="4.3678">
        <ele>132.8</ele>
        <time>2021-05-06T14:02:17Z</time>
      </trkpt>
      <trkpt lat="50.53387" lon="4.36816">
        <ele>134.4</ele>
      </trkpt>
      <trkpt lat="50.53381" lon="4.3686">
        <ele>134.6</ele>
        <time>2021-05-06T14:02:29Z</time>
      </trkpt>
      <trkpt lat="50.53378" lon="4.3688">
        <ele>134.9</ele>
      </trkpt>
      <trkpt lat="50.53368" lon="4.36903">
        <ele>133</ele>
        <time>2021-05-06T14:02:40Z</time>
      </trkpt>
      <trkpt lat="50.53332" lon="4.36963">
        <ele>133</ele>
        <time>2021-05-06T14:02:58Z</time>
      </trkpt>
      <trkpt lat="50.53301" lon="4.37009">
        <ele>133.2</ele>
        <time>2021-05-06T14:03:10Z</time>
      </trkpt>
      <trkpt lat="50.53256" lon="4.37049">
        <ele>132</ele>
        <time>2021-05-06T14:03:27Z</time>
      </trkpt>
      <trkpt lat="50.53245" lon="4.37063">
        <ele>131.8</ele>
        <time>2021-05-06T14:03:31Z</time>
      </trkpt>
      <trkpt lat="50.53227" lon="4.37105">
        <ele>131.4</ele>
        <time>2021-05-06T14:03:40Z</time>
      </trkpt>
      <trkpt lat="50.53213" lon="4.37119">
        <ele>131.4</ele>
        <time>2021-05-06T14:03:44Z</time>
      </trkpt>
      <trkpt lat="50.53198" lon="4.37141">
        <ele>131.2</ele>
        <time>2021-05-06T14:03:49Z</time>
      </trkpt>
      <trkpt lat="50.53162" lon="4.37176">
        <ele>130.6</ele>
        <time>2021-05-06T14:03:59Z</time>
      </trkpt>
      <trkpt lat="50.53117" lon="4.37223">
        <ele>142.4</ele>
        <time>2021-05-06T14:04:09Z</time>
      </trkpt>
      <trkpt lat="50.53033" lon="4.37283">
        <ele>132.6</ele>
        <time>2021-05-06T14:04:31Z</time>
      </trkpt>
      <trkpt lat="50.53005" lon="4.37301">
        <ele>133.4</ele>
        <time>2021-05-06T14:04:38Z</time>
      </trkpt>
      <trkpt lat="50.5299" lon="4.37307">
        <ele>146.5</ele>
      </trkpt>
      <trkpt lat="50.52968" lon="4.37289">
        <ele>146.3</ele>
        <time>2021-05-06T14:04:48Z</time>
      </trkpt>
      <trkpt lat="50.52948" lon="4.3727">
        <ele>146.4</ele>
        <time>2021-05-06T14:04:53Z</time>
      </trkpt>
      <trkpt lat="50.52919" lon="4.37276">
        <ele>135.8</ele>
        <time>2021-05-06T14:04:59Z</time>
      </trkpt>
      <trkpt lat="50.52858" lon="4.37284">
        <ele>137.6</ele>
        <time>2021-05-06T14:05:13Z</time>
      </trkpt>
      <trkpt lat="50.52817" lon="4.37294">
        <ele>139</ele>
        <time>2021-05-06T14:05:24Z</time>
      </trkpt>
      <trkpt lat="50.52764" lon="4.37307">
        <ele>140.6</ele>
        <time>2021-05-06T14:05:37Z</time>
      </trkpt>
      <trkpt lat="50.52718" lon="4.37317">
        <ele>141.6</ele>
        <time>2021-05-06T14:05:50Z</time>
      </trkpt>
      <trkpt lat="50.52714" lon="4.3733">
        <ele>141.8</ele>
        <time>2021-05-06T14:05:53Z</time>
      </trkpt>
      <trkpt lat="50.52761" lon="4.37426">
        <ele>148.5</ele>
        <time>2021-05-06T14:06:10Z</time>
      </trkpt>
      <trkpt lat="50.52781" lon="4.37483">
        <ele>150.4</ele>
        <time>2021-05-06T14:06:19Z</time>
      </trkpt>
      <trkpt lat="50.52813" lon="4.37566">
        <ele>151.7</ele>
        <time>2021-05-06T14:06:30Z</time>
      </trkpt>
      <trkpt lat="50.52841" lon="4.37619">
        <ele>152.3</ele>
        <time>2021-05-06T14:06:43Z</time>
      </trkpt>
      <trkpt lat="50.52893" lon="4.37707">
        <ele>152.3</ele>
        <time>2021-05-06T14:07:02Z</time>
      </trkpt>
      <trkpt lat="50.52922" lon="4.3776">
        <ele>152.4</ele>
        <time>2021-05-06T14:07:14Z</time>
      </trkpt>
      <trkpt lat="50.52943" lon="4.37799">
        <ele>153.9</ele>
        <time>2021-05-06T14:07:21Z</time>
      </trkpt>
      <trkpt lat="50.52962" lon="4.37815">
        <ele>149</ele>
        <time>2021-05-06T14:07:26Z</time>
      </trkpt>
      <trkpt lat="50.52997" lon="4.37842">
        <ele>149.8</ele>
        <time>2021-05-06T14:07:34Z</time>
      </trkpt>
      <trkpt lat="50.53047" lon="4.37882">
        <ele>150.6</ele>
        <time>2021-05-06T14:07:45Z</time>
      </trkpt>
      <trkpt lat="50.53119" lon="4.37933">
        <ele>151.4</ele>
        <time>2021-05-06T14:08:00Z</time>
      </trkpt>
      <trkpt lat="50.53153" lon="4.37953">
        <ele>156</ele>
        <time>2021-05-06T14:08:07Z</time>
      </trkpt>
      <trkpt lat="50.53173" lon="4.37985">
        <ele>152.2</ele>
        <time>2021-05-06T14:08:12Z</time>
      </trkpt>
      <trkpt lat="50.53183" lon="4.38001">
        <ele>156.8</ele>
        <time>2021-05-06T14:08:16Z</time>
      </trkpt>
      <trkpt lat="50.53151" lon="4.38028">
        <ele>156.5</ele>
        <time>2021-05-06T14:08:21Z</time>
      </trkpt>
      <trkpt lat="50.53073" lon="4.38101">
        <ele>153</ele>
        <time>2021-05-06T14:08:35Z</time>
      </trkpt>
      <trkpt lat="50.52928" lon="4.38236">
        <ele>151.4</ele>
        <time>2021-05-06T14:09:02Z</time>
      </trkpt>
      <trkpt lat="50.52843" lon="4.38322">
        <ele>150.2</ele>
        <time>2021-05-06T14:09:18Z</time>
      </trkpt>
      <trkpt lat="50.52781" lon="4.3838">
        <ele>148.2</ele>
        <time>2021-05-06T14:09:31Z</time>
      </trkpt>
      <trkpt lat="50.52723" lon="4.38433">
        <ele>145.2</ele>
        <time>2021-05-06T14:09:43Z</time>
      </trkpt>
      <trkpt lat="50.52695" lon="4.3846">
        <ele>143.4</ele>
        <time>2021-05-06T14:09:49Z</time>
      </trkpt>
      <trkpt lat="50.52671" lon="4.38488">
        <ele>145.8</ele>
        <time>2021-05-06T14:09:54Z</time>
      </trkpt>
      <trkpt lat="50.52641" lon="4.38511">
        <ele>141.4</ele>
        <time>2021-05-06T14:10:00Z</time>
      </trkpt>
      <trkpt lat="50.52588" lon="4.38552">
        <ele>141.6</ele>
        <time>2021-05-06T14:10:11Z</time>
      </trkpt>
      <trkpt lat="50.52538" lon="4.38607">
        <ele>141.8</ele>
        <time>2021-05-06T14:10:22Z</time>
      </trkpt>
      <trkpt lat="50.52459" lon="4.38707">
        <ele>142.4</ele>
        <time>2021-05-06T14:10:38Z</time>
      </trkpt>
      <trkpt lat="50.52392" lon="4.38815">
        <ele>142.4</ele>
        <time>2021-05-06T14:10:51Z</time>
      </trkpt>
      <trkpt lat="50.52334" lon="4.38928">
        <ele>141.2</ele>
        <time>2021-05-06T14:11:01Z</time>
      </trkpt>
      <trkpt lat="50.52227" lon="4.3909">
        <ele>138.6</ele>
        <time>2021-05-06T14:11:21Z</time>
      </trkpt>
      <trkpt lat="50.52189" lon="4.39156">
        <ele>138</ele>
        <time>2021-05-06T14:11:31Z</time>
      </trkpt>
      <trkpt lat="50.52162" lon="4.39191">
        <ele>136.1</ele>
        <time>2021-05-06T14:11:41Z</time>
      </trkpt>
      <trkpt lat="50.52147" lon="4.39209">
        <ele>136.3</ele>
      </trkpt>
      <trkpt lat="50.52131" lon="4.39217">
        <ele>136.6</ele>
        <time>2021-05-06T14:11:50Z</time>
      </trkpt>
      <trkpt lat="50.52072" lon="4.39259">
        <ele>136.2</ele>
        <time>2021-05-06T14:12:05Z</time>
      </trkpt>
      <trkpt lat="50.52052" lon="4.39279">
        <ele>136</ele>
        <time>2021-05-06T14:12:10Z</time>
      </trkpt>
      <trkpt lat="50.52017" lon="4.39305">
        <ele>136.2</ele>
        <time>2021-05-06T14:12:18Z</time>
      </trkpt>
      <trkpt lat="50.51959" lon="4.39315">
        <ele>139.1</ele>
      </trkpt>
      <trkpt lat="50.51921" lon="4.39339">
        <ele>137</ele>
        <time>2021-05-06T14:12:39Z</time>
      </trkpt>
      <trkpt lat="50.51889" lon="4.39346">
        <ele>137.4</ele>
        <time>2021-05-06T14:12:46Z</time>
      </trkpt>
      <trkpt lat="50.51851" lon="4.39347">
        <ele>140.6</ele>
      </trkpt>
      <trkpt lat="50.51842" lon="4.39351">
        <ele>140.7</ele>
      </trkpt>
      <trkpt lat="50.51838" lon="4.39355">
        <ele>137.8</ele>
        <time>2021-05-06T14:12:58Z</time>
      </trkpt>
      <trkpt lat="50.51807" lon="4.39385">
        <ele>140.7</ele>
      </trkpt>
      <trkpt lat="50.51786" lon="4.39417">
        <ele>137.8</ele>
        <time>2021-05-06T14:13:10Z</time>
      </trkpt>
      <trkpt lat="50.51681" lon="4.39547">
        <ele>135.9</ele>
        <time>2021-05-06T14:13:30Z</time>
      </trkpt>
      <trkpt lat="50.51637" lon="4.39621">
        <ele>135.6</ele>
        <time>2021-05-06T14:13:41Z</time>
      </trkpt>
      <trkpt lat="50.51608" lon="4.39664">
        <ele>134.6</ele>
        <time>2021-05-06T14:13:50Z</time>
      </trkpt>
      <trkpt lat="50.5155" lon="4.39725">
        <ele>130.1</ele>
        <time>2021-05-06T14:14:01Z</time>
      </trkpt>
      <trkpt lat="50.51457" lon="4.39818">
        <ele>130.8</ele>
        <time>2021-05-06T14:14:16Z</time>
      </trkpt>
      <trkpt lat="50.51419" lon="4.39856">
        <ele>129.3</ele>
        <time>2021-05-06T14:14:25Z</time>
      </trkpt>
      <trkpt lat="50.51424" lon="4.39873">
        <ele>130.2</ele>
        <time>2021-05-06T14:14:28Z</time>
      </trkpt>
      <trkpt lat="50.51439" lon="4.39929">
        <ele>133.2</ele>
      </trkpt>
      <trkpt lat="50.51474" lon="4.40007">
        <ele>130.6</ele>
        <time>2021-05-06T14:14:52Z</time>
      </trkpt>
      <trkpt lat="50.51504" lon="4.4008">
        <ele>138.8</ele>
        <time>2021-05-06T14:15:08Z</time>
      </trkpt>
      <trkpt lat="50.51535" lon="4.40126">
        <ele>134.2</ele>
        <time>2021-05-06T14:15:21Z</time>
      </trkpt>
      <trkpt lat="50.51591" lon="4.40215">
        <ele>136.8</ele>
        <time>2021-05-06T14:15:42Z</time>
      </trkpt>
      <trkpt lat="50.51619" lon="4.4027">
        <ele>140.2</ele>
        <time>2021-05-06T14:15:54Z</time>
      </trkpt>
      <trkpt lat="50.51619" lon="4.40315">
        <ele>141.1</ele>
        <time>2021-05-06T14:15:59Z</time>
      </trkpt>
      <trkpt lat="50.51617" lon="4.40354">
        <ele>141.6</ele>
        <time>2021-05-06T14:16:05Z</time>
      </trkpt>
      <trkpt lat="50.51602" lon="4.40405">
        <ele>142.7</ele>
      </trkpt>
      <trkpt lat="50.51582" lon="4.40455">
        <ele>137.8</ele>
        <time>2021-05-06T14:16:22Z</time>
      </trkpt>
      <trkpt lat="50.51536" lon="4.40542">
        <ele>138.8</ele>
        <time>2021-05-06T14:16:38Z</time>
      </trkpt>
      <trkpt lat="50.51513" lon="4.40584">
        <ele>139.4</ele>
        <time>2021-05-06T14:16:46Z</time>
      </trkpt>
      <trkpt lat="50.51465" lon="4.40638">
        <ele>141.2</ele>
        <time>2021-05-06T14:17:01Z</time>
      </trkpt>
      <trkpt lat="50.51431" lon="4.40661">
        <ele>142.4</ele>
        <time>2021-05-06T14:17:11Z</time>
      </trkpt>
      <trkpt lat="50.51414" lon="4.40673">
        <ele>144.2</ele>
        <time>2021-05-06T14:17:32Z</time>
      </trkpt>
      <trkpt lat="50.5141" lon="4.40676">
        <ele>145.8</ele>
        <time>2021-05-06T14:17:53Z</time>
      </trkpt>
      <trkpt lat="50.51393" lon="4.40687">
        <ele>146.4</ele>
        <time>2021-05-06T14:18:04Z</time>
      </trkpt>
      <trkpt lat="50.51385" lon="4.40695">
        <ele>146.4</ele>
        <time>2021-05-06T14:18:08Z</time>
      </trkpt>
      <trkpt lat="50.51361" lon="4.40707">
        <ele>146.4</ele>
        <time>2021-05-06T14:18:13Z</time>
      </trkpt>
      <trkpt lat="50.51249" lon="4.40746">
        <ele>143.8</ele>
        <time>2021-05-06T14:18:31Z</time>
      </trkpt>
      <trkpt lat="50.51178" lon="4.40763">
        <ele>141.8</ele>
        <time>2021-05-06T14:18:41Z</time>
      </trkpt>
      <trkpt lat="50.51099" lon="4.40786">
        <ele>134.3</ele>
        <time>2021-05-06T14:18:57Z</time>
      </trkpt>
      <trkpt lat="50.51062" lon="4.4079">
        <ele>138.6</ele>
        <time>2021-05-06T14:19:06Z</time>
      </trkpt>
      <trkpt lat="50.50992" lon="4.40796">
        <ele>137.8</ele>
        <time>2021-05-06T14:19:24Z</time>
      </trkpt>
      <trkpt lat="50.50972" lon="4.40791">
        <ele>139.7</ele>
        <time>2021-05-06T14:19:33Z</time>
      </trkpt>
      <trkpt lat="50.50944" lon="4.40806">
        <ele>139.8</ele>
        <time>2021-05-06T14:19:43Z</time>
      </trkpt>
      <trkpt lat="50.50872" lon="4.40856">
        <ele>141.6</ele>
        <time>2021-05-06T14:20:01Z</time>
      </trkpt>
      <trkpt lat="50.50808" lon="4.409">
        <ele>142.8</ele>
        <time>2021-05-06T14:20:15Z</time>
      </trkpt>
      <trkpt lat="50.50732" lon="4.40949">
        <ele>143.8</ele>
        <time>2021-05-06T14:20:31Z</time>
      </trkpt>
      <trkpt lat="50.50688" lon="4.40989">
        <ele>143.8</ele>
        <time>2021-05-06T14:20:40Z</time>
      </trkpt>
      <trkpt lat="50.50631" lon="4.41038">
        <ele>140.2</ele>
      </trkpt>
      <trkpt lat="50.50595" lon="4.41053">
        <ele>137.8</ele>
        <time>2021-05-06T14:20:55Z</time>
      </trkpt>
      <trkpt lat="50.50561" lon="4.41064">
        <ele>135.7</ele>
      </trkpt>
      <trkpt lat="50.50523" lon="4.41058">
        <ele>141</ele>
        <time>2021-05-06T14:21:07Z</time>
      </trkpt>
      <trkpt lat="50.50478" lon="4.41038">
        <ele>130.9</ele>
      </trkpt>
      <trkpt lat="50.50445" lon="4.41046">
        <ele>129.4</ele>
        <time>2021-05-06T14:21:17Z</time>
      </trkpt>
      <trkpt lat="50.50393" lon="4.41047">
        <ele>127.3</ele>
      </trkpt>
      <trkpt lat="50.50342" lon="4.41045">
        <ele>135.8</ele>
        <time>2021-05-06T14:21:34Z</time>
      </trkpt>
      <trkpt lat="50.503" lon="4.4104">
        <ele>126.3</ele>
      </trkpt>
      <trkpt lat="50.50238" lon="4.41002">
        <ele>127.2</ele>
        <time>2021-05-06T14:21:49Z</time>
      </trkpt>
      <trkpt lat="50.50116" lon="4.40987">
        <ele>133</ele>
        <time>2021-05-06T14:22:14Z</time>
      </trkpt>
      <trkpt lat="50.50046" lon="4.40986">
        <ele>133.2</ele>
        <time>2021-05-06T14:22:28Z</time>
      </trkpt>
      <trkpt lat="50.49917" lon="4.40985">
        <ele>135.3</ele>
        <time>2021-05-06T14:22:52Z</time>
      </trkpt>
      <trkpt lat="50.49871" lon="4.40955">
        <ele>138</ele>
        <time>2021-05-06T14:23:08Z</time>
      </trkpt>
      <trkpt lat="50.49825" lon="4.40934">
        <ele>135.6</ele>
        <time>2021-05-06T14:23:17Z</time>
      </trkpt>
      <trkpt lat="50.49779" lon="4.40921">
        <ele>136.2</ele>
        <time>2021-05-06T14:23:28Z</time>
      </trkpt>
      <trkpt lat="50.49748" lon="4.40924">
        <ele>140.3</ele>
      </trkpt>
      <trkpt lat="50.49705" lon="4.40951">
        <ele>137.8</ele>
        <time>2021-05-06T14:23:47Z</time>
      </trkpt>
      <trkpt lat="50.49641" lon="4.40995">
        <ele>139.8</ele>
        <time>2021-05-06T14:24:07Z</time>
      </trkpt>
      <trkpt lat="50.4961" lon="4.41019">
        <ele>140.8</ele>
        <time>2021-05-06T14:24:18Z</time>
      </trkpt>
      <trkpt lat="50.49533" lon="4.41081">
        <ele>141.2</ele>
        <time>2021-05-06T14:24:37Z</time>
      </trkpt>
      <trkpt lat="50.49487" lon="4.41113">
        <ele>138.8</ele>
        <time>2021-05-06T14:24:49Z</time>
      </trkpt>
      <trkpt lat="50.4948" lon="4.41117">
        <ele>138.5</ele>
      </trkpt>
      <trkpt lat="50.49473" lon="4.41139">
        <ele>140.6</ele>
        <time>2021-05-06T14:24:54Z</time>
      </trkpt>
      <trkpt lat="50.49442" lon="4.41241">
        <ele>135</ele>
        <time>2021-05-06T14:25:09Z</time>
      </trkpt>
      <trkpt lat="50.49428" lon="4.41228">
        <ele>139.6</ele>
        <time>2021-05-06T14:25:14Z</time>
      </trkpt>
      <trkpt lat="50.49427" lon="4.41227">
        <ele>138</ele>
        <time>2021-05-06T14:25:58Z</time>
      </trkpt>
      <trkpt lat="50.49412" lon="4.41214">
        <ele>137.4</ele>
        <time>2021-05-06T14:26:06Z</time>
      </trkpt>
      <trkpt lat="50.49366" lon="4.41165">
        <ele>136.6</ele>
        <time>2021-05-06T14:26:19Z</time>
      </trkpt>
      <trkpt lat="50.49323" lon="4.41107">
        <ele>135.4</ele>
        <time>2021-05-06T14:26:32Z</time>
      </trkpt>
      <trkpt lat="50.49295" lon="4.41072">
        <ele>134.8</ele>
        <time>2021-05-06T14:26:40Z</time>
      </trkpt>
      <trkpt lat="50.49287" lon="4.41061">
        <ele>129.5</ele>
      </trkpt>
      <trkpt lat="50.49275" lon="4.41054">
        <ele>128.6</ele>
      </trkpt>
      <trkpt lat="50.49271" lon="4.41016">
        <ele>128.7</ele>
        <time>2021-05-06T14:26:56Z</time>
      </trkpt>
      <trkpt lat="50.49248" lon="4.40927">
        <ele>133.4</ele>
        <time>2021-05-06T14:27:08Z</time>
      </trkpt>
      <trkpt lat="50.49218" lon="4.4085">
        <ele>129.8</ele>
        <time>2021-05-06T14:27:20Z</time>
      </trkpt>
      <trkpt lat="50.49214" lon="4.4084">
        <ele>129.7</ele>
      </trkpt>
      <trkpt lat="50.49203" lon="4.40817">
        <ele>129.4</ele>
        <time>2021-05-06T14:27:27Z</time>
      </trkpt>
      <trkpt lat="50.49162" lon="4.40879">
        <ele>131.6</ele>
        <time>2021-05-06T14:27:40Z</time>
      </trkpt>
      <trkpt lat="50.49135" lon="4.40915">
        <ele>130</ele>
        <time>2021-05-06T14:27:49Z</time>
      </trkpt>
      <trkpt lat="50.49131" lon="4.40915">
        <ele>129.4</ele>
        <time>2021-05-06T14:27:54Z</time>
      </trkpt>
      <trkpt lat="50.491" lon="4.40861">
        <ele>128.2</ele>
        <time>2021-05-06T14:28:07Z</time>
      </trkpt>
      <trkpt lat="50.49084" lon="4.40854">
        <ele>127.8</ele>
        <time>2021-05-06T14:28:13Z</time>
      </trkpt>
      <trkpt lat="50.49078" lon="4.40823">
        <ele>127.4</ele>
        <time>2021-05-06T14:28:24Z</time>
      </trkpt>
      <trkpt lat="50.49065" lon="4.408">
        <ele>127.4</ele>
        <time>2021-05-06T14:28:33Z</time>
      </trkpt>
      <trkpt lat="50.49062" lon="4.40797">
        <ele>126.8</ele>
        <time>2021-05-06T14:28:58Z</time>
      </trkpt>
      <trkpt lat="50.49062" lon="4.40796">
        <ele>126</ele>
        <time>2021-05-06T14:29:52Z</time>
      </trkpt>
      <trkpt lat="50.49061" lon="4.40796">
        <ele>125.2</ele>
        <time>2021-05-06T14:30:38Z</time>
      </trkpt>
      <trkpt lat="50.49061" lon="4.40796">
        <ele>124.8</ele>
        <time>2021-05-06T14:31:38Z</time>
      </trkpt>
      <trkpt lat="50.49061" lon="4.40796">
        <ele>124.6</ele>
        <time>2021-05-06T14:32:09Z</time>
      </trkpt>
      <trkpt lat="50.49061" lon="4.40795">
        <ele>124.6</ele>
        <time>2021-05-06T14:33:17Z</time>
      </trkpt>
      <trkpt lat="50.4906" lon="4.40796">
        <ele>124.4</ele>
        <time>2021-05-06T14:33:55Z</time>
      </trkpt>
    </trkseg>
  </trk>
</gpx>